<?xml version="1.0" encoding="UTF-8" standalone="no" ?>
<gpx xmlns="http://www.topografix.com/GPX/1/1" xmlns:xsi="http://www.w3.org/2001/XMLSchema-instance" xsi:schemaLocation="http://www.topografix.com/GPX/1/1 http://www.topografix.com/GPX/1/1/gpx.xsd" version="1.1" creator="VisuGPX - https://www.visugpx.com">
  <metadata>
    <name>ogeu 2 revu</name>
    <desc><![CDATA[monter puis tourner à gauche]]></desc>
  </metadata>
  <trk>
    <name><![CDATA[ogeu 2 revu_3]]></name>
    <extensions>
      <line xmlns="http://www.topografix.com/GPX/gpx_style/0/2">
        <color>FF0000</color>
        <width>4</width>
      </line>
    </extensions>
    <trkseg>
      <trkpt lat="43.13246" lon="-0.49434">
        <ele>354.86</ele>
        <time>2021-08-29T09:28:45Z</time>
      </trkpt>
      <trkpt lat="43.13246" lon="-0.49434">
        <ele>354.86</ele>
        <time>2021-08-29T09:28:45Z</time>
      </trkpt>
      <trkpt lat="43.13246" lon="-0.49434">
        <ele>354.86</ele>
        <time>2021-08-29T09:28:45Z</time>
      </trkpt>
      <trkpt lat="43.13246" lon="-0.49434">
        <ele>354.86</ele>
        <time>2021-08-29T09:28:45Z</time>
      </trkpt>
      <trkpt lat="43.13246" lon="-0.49434">
        <ele>354.86</ele>
        <time>2021-08-29T09:28:45Z</time>
      </trkpt>
      <trkpt lat="43.13246" lon="-0.49425">
        <ele>354.86</ele>
        <time>2021-08-29T09:28:50Z</time>
      </trkpt>
      <trkpt lat="43.13228" lon="-0.49346">
        <ele>354.86</ele>
        <time>2021-08-29T09:29:06Z</time>
      </trkpt>
      <trkpt lat="43.13227" lon="-0.49341">
        <ele>354.86</ele>
        <time>2021-08-29T09:29:07Z</time>
      </trkpt>
      <trkpt lat="43.13202" lon="-0.49292">
        <ele>354.86</ele>
        <time>2021-08-29T09:29:19Z</time>
      </trkpt>
      <trkpt lat="43.13195" lon="-0.49277">
        <ele>352.94</ele>
        <time>2021-08-29T09:29:22Z</time>
      </trkpt>
      <trkpt lat="43.13191" lon="-0.49266">
        <ele>351.98</ele>
        <time>2021-08-29T09:29:24Z</time>
      </trkpt>
      <trkpt lat="43.13187" lon="-0.49256">
        <ele>353.9</ele>
        <time>2021-08-29T09:29:27Z</time>
      </trkpt>
      <trkpt lat="43.13163" lon="-0.49209">
        <ele>356.31</ele>
        <time>2021-08-29T09:29:41Z</time>
      </trkpt>
      <trkpt lat="43.13133" lon="-0.49195">
        <ele>356.79</ele>
        <time>2021-08-29T09:29:53Z</time>
      </trkpt>
      <trkpt lat="43.13096" lon="-0.49205">
        <ele>360.15</ele>
        <time>2021-08-29T09:30:09Z</time>
      </trkpt>
      <trkpt lat="43.13061" lon="-0.49206">
        <ele>363.52</ele>
        <time>2021-08-29T09:30:25Z</time>
      </trkpt>
      <trkpt lat="43.13032" lon="-0.49206">
        <ele>366.4</ele>
        <time>2021-08-29T09:30:38Z</time>
      </trkpt>
      <trkpt lat="43.13006" lon="-0.49201">
        <ele>367.84</ele>
        <time>2021-08-29T09:30:50Z</time>
      </trkpt>
      <trkpt lat="43.12977" lon="-0.49206">
        <ele>369.28</ele>
        <time>2021-08-29T09:31:01Z</time>
      </trkpt>
      <trkpt lat="43.12931" lon="-0.49221">
        <ele>371.21</ele>
        <time>2021-08-29T09:31:15Z</time>
      </trkpt>
      <trkpt lat="43.12867" lon="-0.49241">
        <ele>371.21</ele>
        <time>2021-08-29T09:31:30Z</time>
      </trkpt>
      <trkpt lat="43.12853" lon="-0.49246">
        <ele>369.76</ele>
        <time>2021-08-29T09:31:33Z</time>
      </trkpt>
      <trkpt lat="43.12844" lon="-0.49244">
        <ele>369.76</ele>
        <time>2021-08-29T09:31:35Z</time>
      </trkpt>
      <trkpt lat="43.12841" lon="-0.49241">
        <ele>369.28</ele>
        <time>2021-08-29T09:31:36Z</time>
      </trkpt>
      <trkpt lat="43.12839" lon="-0.49237">
        <ele>369.28</ele>
        <time>2021-08-29T09:31:37Z</time>
      </trkpt>
      <trkpt lat="43.12837" lon="-0.49231">
        <ele>369.28</ele>
        <time>2021-08-29T09:31:38Z</time>
      </trkpt>
      <trkpt lat="43.12835" lon="-0.49226">
        <ele>369.28</ele>
        <time>2021-08-29T09:31:39Z</time>
      </trkpt>
      <trkpt lat="43.1283" lon="-0.49208">
        <ele>369.28</ele>
        <time>2021-08-29T09:31:42Z</time>
      </trkpt>
      <trkpt lat="43.12811" lon="-0.49153">
        <ele>372.17</ele>
        <time>2021-08-29T09:31:52Z</time>
      </trkpt>
      <trkpt lat="43.12803" lon="-0.49125">
        <ele>373.61</ele>
        <time>2021-08-29T09:31:57Z</time>
      </trkpt>
      <trkpt lat="43.12784" lon="-0.49058">
        <ele>376.01</ele>
        <time>2021-08-29T09:32:11Z</time>
      </trkpt>
      <trkpt lat="43.12777" lon="-0.48997">
        <ele>379.38</ele>
        <time>2021-08-29T09:32:24Z</time>
      </trkpt>
      <trkpt lat="43.12753" lon="-0.48954">
        <ele>381.3</ele>
        <time>2021-08-29T09:32:36Z</time>
      </trkpt>
      <trkpt lat="43.12728" lon="-0.48907">
        <ele>381.78</ele>
        <time>2021-08-29T09:32:47Z</time>
      </trkpt>
      <trkpt lat="43.12684" lon="-0.48845">
        <ele>384.18</ele>
        <time>2021-08-29T09:33:04Z</time>
      </trkpt>
      <trkpt lat="43.1265" lon="-0.48796">
        <ele>385.15</ele>
        <time>2021-08-29T09:33:18Z</time>
      </trkpt>
      <trkpt lat="43.1265" lon="-0.48789">
        <ele>385.15</ele>
        <time>2021-08-29T09:33:19Z</time>
      </trkpt>
      <trkpt lat="43.12649" lon="-0.48775">
        <ele>383.22</ele>
        <time>2021-08-29T09:33:21Z</time>
      </trkpt>
      <trkpt lat="43.12649" lon="-0.48768">
        <ele>383.22</ele>
        <time>2021-08-29T09:33:22Z</time>
      </trkpt>
      <trkpt lat="43.1265" lon="-0.4876">
        <ele>383.22</ele>
        <time>2021-08-29T09:33:23Z</time>
      </trkpt>
      <trkpt lat="43.12652" lon="-0.48747">
        <ele>383.22</ele>
        <time>2021-08-29T09:33:25Z</time>
      </trkpt>
      <trkpt lat="43.12652" lon="-0.48742">
        <ele>383.22</ele>
        <time>2021-08-29T09:33:26Z</time>
      </trkpt>
      <trkpt lat="43.1265" lon="-0.48739">
        <ele>383.22</ele>
        <time>2021-08-29T09:33:27Z</time>
      </trkpt>
      <trkpt lat="43.12647" lon="-0.48738">
        <ele>383.22</ele>
        <time>2021-08-29T09:33:28Z</time>
      </trkpt>
      <trkpt lat="43.12645" lon="-0.48739">
        <ele>383.22</ele>
        <time>2021-08-29T09:33:29Z</time>
      </trkpt>
      <trkpt lat="43.12643" lon="-0.48741">
        <ele>383.22</ele>
        <time>2021-08-29T09:33:30Z</time>
      </trkpt>
      <trkpt lat="43.12641" lon="-0.48744">
        <ele>383.22</ele>
        <time>2021-08-29T09:33:31Z</time>
      </trkpt>
      <trkpt lat="43.12638" lon="-0.4875">
        <ele>384.18</ele>
        <time>2021-08-29T09:33:33Z</time>
      </trkpt>
      <trkpt lat="43.12604" lon="-0.48793">
        <ele>387.07</ele>
        <time>2021-08-29T09:33:47Z</time>
      </trkpt>
      <trkpt lat="43.12564" lon="-0.48839">
        <ele>385.63</ele>
        <time>2021-08-29T09:33:59Z</time>
      </trkpt>
      <trkpt lat="43.12551" lon="-0.48854">
        <ele>384.66</ele>
        <time>2021-08-29T09:34:04Z</time>
      </trkpt>
      <trkpt lat="43.12546" lon="-0.48855">
        <ele>384.18</ele>
        <time>2021-08-29T09:34:17Z</time>
      </trkpt>
      <trkpt lat="43.12544" lon="-0.48857">
        <ele>384.18</ele>
        <time>2021-08-29T09:34:24Z</time>
      </trkpt>
      <trkpt lat="43.12525" lon="-0.48888">
        <ele>380.34</ele>
        <time>2021-08-29T09:34:34Z</time>
      </trkpt>
      <trkpt lat="43.12523" lon="-0.48892">
        <ele>380.34</ele>
        <time>2021-08-29T09:34:35Z</time>
      </trkpt>
      <trkpt lat="43.12517" lon="-0.48897">
        <ele>379.38</ele>
        <time>2021-08-29T09:34:37Z</time>
      </trkpt>
      <trkpt lat="43.12499" lon="-0.48895">
        <ele>375.53</ele>
        <time>2021-08-29T09:34:41Z</time>
      </trkpt>
      <trkpt lat="43.12482" lon="-0.48889">
        <ele>371.69</ele>
        <time>2021-08-29T09:34:45Z</time>
      </trkpt>
      <trkpt lat="43.1247" lon="-0.48878">
        <ele>369.28</ele>
        <time>2021-08-29T09:34:49Z</time>
      </trkpt>
      <trkpt lat="43.12458" lon="-0.48884">
        <ele>367.36</ele>
        <time>2021-08-29T09:34:52Z</time>
      </trkpt>
      <trkpt lat="43.12451" lon="-0.48891">
        <ele>366.88</ele>
        <time>2021-08-29T09:34:54Z</time>
      </trkpt>
      <trkpt lat="43.12434" lon="-0.4891">
        <ele>364</ele>
        <time>2021-08-29T09:34:58Z</time>
      </trkpt>
      <trkpt lat="43.12414" lon="-0.48934">
        <ele>360.63</ele>
        <time>2021-08-29T09:35:03Z</time>
      </trkpt>
      <trkpt lat="43.12403" lon="-0.48958">
        <ele>357.27</ele>
        <time>2021-08-29T09:35:07Z</time>
      </trkpt>
      <trkpt lat="43.12385" lon="-0.48994">
        <ele>352.94</ele>
        <time>2021-08-29T09:35:12Z</time>
      </trkpt>
      <trkpt lat="43.12368" lon="-0.49041">
        <ele>349.1</ele>
        <time>2021-08-29T09:35:17Z</time>
      </trkpt>
      <trkpt lat="43.12365" lon="-0.49048">
        <ele>349.1</ele>
        <time>2021-08-29T09:35:18Z</time>
      </trkpt>
      <trkpt lat="43.12355" lon="-0.49062">
        <ele>349.1</ele>
        <time>2021-08-29T09:35:21Z</time>
      </trkpt>
      <trkpt lat="43.12343" lon="-0.4908">
        <ele>346.21</ele>
        <time>2021-08-29T09:35:24Z</time>
      </trkpt>
      <trkpt lat="43.12324" lon="-0.49098">
        <ele>343.81</ele>
        <time>2021-08-29T09:35:28Z</time>
      </trkpt>
      <trkpt lat="43.12314" lon="-0.49101">
        <ele>342.37</ele>
        <time>2021-08-29T09:35:31Z</time>
      </trkpt>
      <trkpt lat="43.12306" lon="-0.49106">
        <ele>340.44</ele>
        <time>2021-08-29T09:35:33Z</time>
      </trkpt>
      <trkpt lat="43.12289" lon="-0.49114">
        <ele>336.6</ele>
        <time>2021-08-29T09:35:37Z</time>
      </trkpt>
      <trkpt lat="43.12287" lon="-0.49117">
        <ele>335.64</ele>
        <time>2021-08-29T09:35:38Z</time>
      </trkpt>
      <trkpt lat="43.12277" lon="-0.49135">
        <ele>329.87</ele>
        <time>2021-08-29T09:35:43Z</time>
      </trkpt>
      <trkpt lat="43.12274" lon="-0.4914">
        <ele>328.43</ele>
        <time>2021-08-29T09:35:44Z</time>
      </trkpt>
      <trkpt lat="43.12269" lon="-0.49152">
        <ele>324.58</ele>
        <time>2021-08-29T09:35:48Z</time>
      </trkpt>
      <trkpt lat="43.12268" lon="-0.49159">
        <ele>322.66</ele>
        <time>2021-08-29T09:35:50Z</time>
      </trkpt>
      <trkpt lat="43.12271" lon="-0.49182">
        <ele>317.85</ele>
        <time>2021-08-29T09:35:56Z</time>
      </trkpt>
      <trkpt lat="43.12268" lon="-0.49184">
        <ele>317.37</ele>
        <time>2021-08-29T09:36:04Z</time>
      </trkpt>
      <trkpt lat="43.12266" lon="-0.49186">
        <ele>316.89</ele>
        <time>2021-08-29T09:36:12Z</time>
      </trkpt>
      <trkpt lat="43.12262" lon="-0.49187">
        <ele>314.97</ele>
        <time>2021-08-29T09:36:16Z</time>
      </trkpt>
      <trkpt lat="43.12251" lon="-0.49197">
        <ele>309.68</ele>
        <time>2021-08-29T09:36:21Z</time>
      </trkpt>
      <trkpt lat="43.12244" lon="-0.49212">
        <ele>306.8</ele>
        <time>2021-08-29T09:36:27Z</time>
      </trkpt>
      <trkpt lat="43.12245" lon="-0.4922">
        <ele>306.8</ele>
        <time>2021-08-29T09:36:30Z</time>
      </trkpt>
      <trkpt lat="43.12248" lon="-0.49264">
        <ele>306.8</ele>
        <time>2021-08-29T09:36:41Z</time>
      </trkpt>
      <trkpt lat="43.12253" lon="-0.49303">
        <ele>306.32</ele>
        <time>2021-08-29T09:36:53Z</time>
      </trkpt>
      <trkpt lat="43.12255" lon="-0.49316">
        <ele>306.32</ele>
        <time>2021-08-29T09:37:01Z</time>
      </trkpt>
      <trkpt lat="43.12259" lon="-0.4935">
        <ele>305.84</ele>
        <time>2021-08-29T09:37:09Z</time>
      </trkpt>
      <trkpt lat="43.12275" lon="-0.49413">
        <ele>305.84</ele>
        <time>2021-08-29T09:37:21Z</time>
      </trkpt>
      <trkpt lat="43.12276" lon="-0.49418">
        <ele>305.84</ele>
        <time>2021-08-29T09:37:22Z</time>
      </trkpt>
      <trkpt lat="43.12288" lon="-0.49453">
        <ele>304.88</ele>
        <time>2021-08-29T09:37:28Z</time>
      </trkpt>
      <trkpt lat="43.12297" lon="-0.49479">
        <ele>304.39</ele>
        <time>2021-08-29T09:37:32Z</time>
      </trkpt>
      <trkpt lat="43.12304" lon="-0.49507">
        <ele>303.91</ele>
        <time>2021-08-29T09:37:38Z</time>
      </trkpt>
      <trkpt lat="43.12306" lon="-0.49548">
        <ele>301.99</ele>
        <time>2021-08-29T09:37:48Z</time>
      </trkpt>
      <trkpt lat="43.12308" lon="-0.49562">
        <ele>300.07</ele>
        <time>2021-08-29T09:37:52Z</time>
      </trkpt>
      <trkpt lat="43.12313" lon="-0.49574">
        <ele>298.63</ele>
        <time>2021-08-29T09:37:55Z</time>
      </trkpt>
      <trkpt lat="43.12316" lon="-0.49589">
        <ele>297.67</ele>
        <time>2021-08-29T09:38:05Z</time>
      </trkpt>
      <trkpt lat="43.1231" lon="-0.49602">
        <ele>297.18</ele>
        <time>2021-08-29T09:38:37Z</time>
      </trkpt>
      <trkpt lat="43.12291" lon="-0.49642">
        <ele>296.7</ele>
        <time>2021-08-29T09:38:52Z</time>
      </trkpt>
      <trkpt lat="43.12286" lon="-0.4965">
        <ele>296.7</ele>
        <time>2021-08-29T09:38:55Z</time>
      </trkpt>
      <trkpt lat="43.1227" lon="-0.49637">
        <ele>300.07</ele>
        <time>2021-08-29T09:39:04Z</time>
      </trkpt>
      <trkpt lat="43.12257" lon="-0.49618">
        <ele>302.47</ele>
        <time>2021-08-29T09:39:16Z</time>
      </trkpt>
      <trkpt lat="43.12237" lon="-0.49603">
        <ele>305.84</ele>
        <time>2021-08-29T09:39:30Z</time>
      </trkpt>
      <trkpt lat="43.1223" lon="-0.49597">
        <ele>307.28</ele>
        <time>2021-08-29T09:39:35Z</time>
      </trkpt>
      <trkpt lat="43.12226" lon="-0.49595">
        <ele>308.72</ele>
        <time>2021-08-29T09:39:38Z</time>
      </trkpt>
      <trkpt lat="43.12212" lon="-0.49583">
        <ele>312.09</ele>
        <time>2021-08-29T09:39:51Z</time>
      </trkpt>
      <trkpt lat="43.12202" lon="-0.4958">
        <ele>314.01</ele>
        <time>2021-08-29T09:39:59Z</time>
      </trkpt>
      <trkpt lat="43.12202" lon="-0.49587">
        <ele>315.45</ele>
        <time>2021-08-29T09:40:05Z</time>
      </trkpt>
      <trkpt lat="43.1219" lon="-0.49608">
        <ele>317.85</ele>
        <time>2021-08-29T09:40:22Z</time>
      </trkpt>
      <trkpt lat="43.12175" lon="-0.49626">
        <ele>320.74</ele>
        <time>2021-08-29T09:40:37Z</time>
      </trkpt>
      <trkpt lat="43.12174" lon="-0.49628">
        <ele>321.7</ele>
        <time>2021-08-29T09:40:39Z</time>
      </trkpt>
      <trkpt lat="43.12152" lon="-0.49636">
        <ele>322.66</ele>
        <time>2021-08-29T09:40:51Z</time>
      </trkpt>
      <trkpt lat="43.12118" lon="-0.49648">
        <ele>322.66</ele>
        <time>2021-08-29T09:41:05Z</time>
      </trkpt>
      <trkpt lat="43.1208" lon="-0.49649">
        <ele>323.14</ele>
        <time>2021-08-29T09:41:19Z</time>
      </trkpt>
      <trkpt lat="43.12072" lon="-0.49612">
        <ele>323.14</ele>
        <time>2021-08-29T09:41:32Z</time>
      </trkpt>
      <trkpt lat="43.12088" lon="-0.49572">
        <ele>323.14</ele>
        <time>2021-08-29T09:41:44Z</time>
      </trkpt>
      <trkpt lat="43.1209" lon="-0.49541">
        <ele>323.14</ele>
        <time>2021-08-29T09:41:50Z</time>
      </trkpt>
      <trkpt lat="43.12089" lon="-0.49536">
        <ele>323.14</ele>
        <time>2021-08-29T09:41:51Z</time>
      </trkpt>
      <trkpt lat="43.12087" lon="-0.49531">
        <ele>323.14</ele>
        <time>2021-08-29T09:41:52Z</time>
      </trkpt>
      <trkpt lat="43.12084" lon="-0.49526">
        <ele>323.14</ele>
        <time>2021-08-29T09:41:53Z</time>
      </trkpt>
      <trkpt lat="43.12082" lon="-0.49523">
        <ele>323.14</ele>
        <time>2021-08-29T09:41:54Z</time>
      </trkpt>
      <trkpt lat="43.1208" lon="-0.49519">
        <ele>323.14</ele>
        <time>2021-08-29T09:41:55Z</time>
      </trkpt>
      <trkpt lat="43.12077" lon="-0.49515">
        <ele>323.14</ele>
        <time>2021-08-29T09:41:56Z</time>
      </trkpt>
      <trkpt lat="43.12074" lon="-0.49512">
        <ele>323.14</ele>
        <time>2021-08-29T09:41:57Z</time>
      </trkpt>
      <trkpt lat="43.12068" lon="-0.49504">
        <ele>324.58</ele>
        <time>2021-08-29T09:41:59Z</time>
      </trkpt>
      <trkpt lat="43.12065" lon="-0.49499">
        <ele>324.58</ele>
        <time>2021-08-29T09:42:00Z</time>
      </trkpt>
      <trkpt lat="43.12062" lon="-0.49494">
        <ele>324.58</ele>
        <time>2021-08-29T09:42:01Z</time>
      </trkpt>
      <trkpt lat="43.1206" lon="-0.49489">
        <ele>324.58</ele>
        <time>2021-08-29T09:42:02Z</time>
      </trkpt>
      <trkpt lat="43.12059" lon="-0.49483">
        <ele>324.58</ele>
        <time>2021-08-29T09:42:03Z</time>
      </trkpt>
      <trkpt lat="43.12058" lon="-0.49476">
        <ele>324.58</ele>
        <time>2021-08-29T09:42:04Z</time>
      </trkpt>
      <trkpt lat="43.12058" lon="-0.49471">
        <ele>324.58</ele>
        <time>2021-08-29T09:42:05Z</time>
      </trkpt>
      <trkpt lat="43.12059" lon="-0.49465">
        <ele>324.58</ele>
        <time>2021-08-29T09:42:06Z</time>
      </trkpt>
      <trkpt lat="43.1206" lon="-0.49459">
        <ele>324.58</ele>
        <time>2021-08-29T09:42:07Z</time>
      </trkpt>
      <trkpt lat="43.12061" lon="-0.49454">
        <ele>324.58</ele>
        <time>2021-08-29T09:42:08Z</time>
      </trkpt>
      <trkpt lat="43.12063" lon="-0.49449">
        <ele>325.06</ele>
        <time>2021-08-29T09:42:09Z</time>
      </trkpt>
      <trkpt lat="43.12065" lon="-0.49444">
        <ele>325.06</ele>
        <time>2021-08-29T09:42:10Z</time>
      </trkpt>
      <trkpt lat="43.12071" lon="-0.49431">
        <ele>325.06</ele>
        <time>2021-08-29T09:42:13Z</time>
      </trkpt>
      <trkpt lat="43.12073" lon="-0.49425">
        <ele>325.06</ele>
        <time>2021-08-29T09:42:14Z</time>
      </trkpt>
      <trkpt lat="43.12074" lon="-0.4942">
        <ele>325.06</ele>
        <time>2021-08-29T09:42:15Z</time>
      </trkpt>
      <trkpt lat="43.12075" lon="-0.49413">
        <ele>325.06</ele>
        <time>2021-08-29T09:42:16Z</time>
      </trkpt>
      <trkpt lat="43.12076" lon="-0.49408">
        <ele>325.06</ele>
        <time>2021-08-29T09:42:17Z</time>
      </trkpt>
      <trkpt lat="43.12076" lon="-0.49403">
        <ele>325.06</ele>
        <time>2021-08-29T09:42:18Z</time>
      </trkpt>
      <trkpt lat="43.12076" lon="-0.49397">
        <ele>325.06</ele>
        <time>2021-08-29T09:42:19Z</time>
      </trkpt>
      <trkpt lat="43.12075" lon="-0.49392">
        <ele>325.06</ele>
        <time>2021-08-29T09:42:20Z</time>
      </trkpt>
      <trkpt lat="43.12074" lon="-0.49386">
        <ele>325.54</ele>
        <time>2021-08-29T09:42:21Z</time>
      </trkpt>
      <trkpt lat="43.12073" lon="-0.49381">
        <ele>325.54</ele>
        <time>2021-08-29T09:42:22Z</time>
      </trkpt>
      <trkpt lat="43.12051" lon="-0.49283">
        <ele>328.43</ele>
        <time>2021-08-29T09:42:42Z</time>
      </trkpt>
      <trkpt lat="43.12027" lon="-0.49219">
        <ele>329.87</ele>
        <time>2021-08-29T09:42:57Z</time>
      </trkpt>
      <trkpt lat="43.12002" lon="-0.49145">
        <ele>331.79</ele>
        <time>2021-08-29T09:43:14Z</time>
      </trkpt>
      <trkpt lat="43.11958" lon="-0.49139">
        <ele>334.2</ele>
        <time>2021-08-29T09:43:28Z</time>
      </trkpt>
      <trkpt lat="43.11909" lon="-0.49164">
        <ele>335.16</ele>
        <time>2021-08-29T09:43:43Z</time>
      </trkpt>
      <trkpt lat="43.11883" lon="-0.49158">
        <ele>335.64</ele>
        <time>2021-08-29T09:43:50Z</time>
      </trkpt>
      <trkpt lat="43.1188" lon="-0.49162">
        <ele>336.12</ele>
        <time>2021-08-29T09:43:51Z</time>
      </trkpt>
      <trkpt lat="43.11863" lon="-0.4919">
        <ele>339</ele>
        <time>2021-08-29T09:44:04Z</time>
      </trkpt>
      <trkpt lat="43.11841" lon="-0.49217">
        <ele>342.37</ele>
        <time>2021-08-29T09:44:19Z</time>
      </trkpt>
      <trkpt lat="43.11823" lon="-0.49239">
        <ele>345.25</ele>
        <time>2021-08-29T09:44:33Z</time>
      </trkpt>
      <trkpt lat="43.11806" lon="-0.49258">
        <ele>349.1</ele>
        <time>2021-08-29T09:44:47Z</time>
      </trkpt>
      <trkpt lat="43.11794" lon="-0.49274">
        <ele>352.46</ele>
        <time>2021-08-29T09:45:01Z</time>
      </trkpt>
      <trkpt lat="43.11788" lon="-0.49282">
        <ele>353.42</ele>
        <time>2021-08-29T09:45:08Z</time>
      </trkpt>
      <trkpt lat="43.11787" lon="-0.49283">
        <ele>353.42</ele>
        <time>2021-08-29T09:45:09Z</time>
      </trkpt>
      <trkpt lat="43.11786" lon="-0.49284">
        <ele>354.38</ele>
        <time>2021-08-29T09:45:10Z</time>
      </trkpt>
      <trkpt lat="43.11784" lon="-0.49285">
        <ele>354.38</ele>
        <time>2021-08-29T09:45:11Z</time>
      </trkpt>
      <trkpt lat="43.11783" lon="-0.49286">
        <ele>354.38</ele>
        <time>2021-08-29T09:45:12Z</time>
      </trkpt>
      <trkpt lat="43.11782" lon="-0.49287">
        <ele>354.86</ele>
        <time>2021-08-29T09:45:13Z</time>
      </trkpt>
      <trkpt lat="43.11782" lon="-0.49288">
        <ele>355.34</ele>
        <time>2021-08-29T09:45:14Z</time>
      </trkpt>
      <trkpt lat="43.11781" lon="-0.49289">
        <ele>355.34</ele>
        <time>2021-08-29T09:45:15Z</time>
      </trkpt>
      <trkpt lat="43.11768" lon="-0.49304">
        <ele>358.71</ele>
        <time>2021-08-29T09:45:30Z</time>
      </trkpt>
      <trkpt lat="43.11766" lon="-0.49305">
        <ele>358.71</ele>
        <time>2021-08-29T09:45:32Z</time>
      </trkpt>
      <trkpt lat="43.11764" lon="-0.49306">
        <ele>359.19</ele>
        <time>2021-08-29T09:45:33Z</time>
      </trkpt>
      <trkpt lat="43.11763" lon="-0.49306">
        <ele>359.19</ele>
        <time>2021-08-29T09:45:34Z</time>
      </trkpt>
      <trkpt lat="43.11757" lon="-0.4931">
        <ele>361.11</ele>
        <time>2021-08-29T09:45:41Z</time>
      </trkpt>
      <trkpt lat="43.1175" lon="-0.49313">
        <ele>361.59</ele>
        <time>2021-08-29T09:45:47Z</time>
      </trkpt>
      <trkpt lat="43.11749" lon="-0.49313">
        <ele>361.59</ele>
        <time>2021-08-29T09:45:48Z</time>
      </trkpt>
      <trkpt lat="43.11748" lon="-0.49311">
        <ele>362.55</ele>
        <time>2021-08-29T09:45:49Z</time>
      </trkpt>
      <trkpt lat="43.11747" lon="-0.4931">
        <ele>362.55</ele>
        <time>2021-08-29T09:45:50Z</time>
      </trkpt>
      <trkpt lat="43.11747" lon="-0.49308">
        <ele>363.04</ele>
        <time>2021-08-29T09:45:51Z</time>
      </trkpt>
      <trkpt lat="43.11745" lon="-0.49305">
        <ele>363.04</ele>
        <time>2021-08-29T09:45:54Z</time>
      </trkpt>
      <trkpt lat="43.11744" lon="-0.49304">
        <ele>363.52</ele>
        <time>2021-08-29T09:45:55Z</time>
      </trkpt>
      <trkpt lat="43.11736" lon="-0.49301">
        <ele>364.96</ele>
        <time>2021-08-29T09:46:02Z</time>
      </trkpt>
      <trkpt lat="43.11728" lon="-0.49297">
        <ele>367.36</ele>
        <time>2021-08-29T09:46:10Z</time>
      </trkpt>
      <trkpt lat="43.11727" lon="-0.49296">
        <ele>367.36</ele>
        <time>2021-08-29T09:46:11Z</time>
      </trkpt>
      <trkpt lat="43.11726" lon="-0.49295">
        <ele>367.36</ele>
        <time>2021-08-29T09:46:12Z</time>
      </trkpt>
      <trkpt lat="43.11725" lon="-0.49294">
        <ele>368.32</ele>
        <time>2021-08-29T09:46:13Z</time>
      </trkpt>
      <trkpt lat="43.11723" lon="-0.49294">
        <ele>368.32</ele>
        <time>2021-08-29T09:46:14Z</time>
      </trkpt>
      <trkpt lat="43.11722" lon="-0.49293">
        <ele>368.8</ele>
        <time>2021-08-29T09:46:15Z</time>
      </trkpt>
      <trkpt lat="43.11721" lon="-0.49294">
        <ele>368.8</ele>
        <time>2021-08-29T09:46:16Z</time>
      </trkpt>
      <trkpt lat="43.1172" lon="-0.49293">
        <ele>369.28</ele>
        <time>2021-08-29T09:46:17Z</time>
      </trkpt>
      <trkpt lat="43.11719" lon="-0.49292">
        <ele>369.76</ele>
        <time>2021-08-29T09:46:18Z</time>
      </trkpt>
      <trkpt lat="43.11707" lon="-0.49286">
        <ele>372.65</ele>
        <time>2021-08-29T09:46:28Z</time>
      </trkpt>
      <trkpt lat="43.11698" lon="-0.49278">
        <ele>375.05</ele>
        <time>2021-08-29T09:46:39Z</time>
      </trkpt>
      <trkpt lat="43.11697" lon="-0.49277">
        <ele>375.05</ele>
        <time>2021-08-29T09:46:40Z</time>
      </trkpt>
      <trkpt lat="43.11682" lon="-0.49266">
        <ele>377.45</ele>
        <time>2021-08-29T09:46:55Z</time>
      </trkpt>
      <trkpt lat="43.11681" lon="-0.49265">
        <ele>377.45</ele>
        <time>2021-08-29T09:46:56Z</time>
      </trkpt>
      <trkpt lat="43.1168" lon="-0.49265">
        <ele>377.94</ele>
        <time>2021-08-29T09:46:57Z</time>
      </trkpt>
      <trkpt lat="43.11679" lon="-0.49264">
        <ele>377.94</ele>
        <time>2021-08-29T09:46:58Z</time>
      </trkpt>
      <trkpt lat="43.11678" lon="-0.49263">
        <ele>378.9</ele>
        <time>2021-08-29T09:46:59Z</time>
      </trkpt>
      <trkpt lat="43.11677" lon="-0.49262">
        <ele>378.9</ele>
        <time>2021-08-29T09:47:00Z</time>
      </trkpt>
      <trkpt lat="43.11676" lon="-0.49261">
        <ele>378.9</ele>
        <time>2021-08-29T09:47:01Z</time>
      </trkpt>
      <trkpt lat="43.11675" lon="-0.49261">
        <ele>378.9</ele>
        <time>2021-08-29T09:47:02Z</time>
      </trkpt>
      <trkpt lat="43.11674" lon="-0.4926">
        <ele>378.9</ele>
        <time>2021-08-29T09:47:03Z</time>
      </trkpt>
      <trkpt lat="43.1165" lon="-0.49258">
        <ele>379.86</ele>
        <time>2021-08-29T09:47:17Z</time>
      </trkpt>
      <trkpt lat="43.11616" lon="-0.49271">
        <ele>380.82</ele>
        <time>2021-08-29T09:47:33Z</time>
      </trkpt>
      <trkpt lat="43.11584" lon="-0.49282">
        <ele>382.74</ele>
        <time>2021-08-29T09:47:47Z</time>
      </trkpt>
      <trkpt lat="43.11564" lon="-0.49264">
        <ele>384.66</ele>
        <time>2021-08-29T09:47:59Z</time>
      </trkpt>
      <trkpt lat="43.11556" lon="-0.49232">
        <ele>388.51</ele>
        <time>2021-08-29T09:48:14Z</time>
      </trkpt>
      <trkpt lat="43.11537" lon="-0.49223">
        <ele>391.39</ele>
        <time>2021-08-29T09:48:27Z</time>
      </trkpt>
      <trkpt lat="43.11501" lon="-0.49221">
        <ele>391.87</ele>
        <time>2021-08-29T09:48:41Z</time>
      </trkpt>
      <trkpt lat="43.11465" lon="-0.49234">
        <ele>390.91</ele>
        <time>2021-08-29T09:48:50Z</time>
      </trkpt>
      <trkpt lat="43.1146" lon="-0.49235">
        <ele>389.95</ele>
        <time>2021-08-29T09:48:51Z</time>
      </trkpt>
      <trkpt lat="43.11454" lon="-0.49235">
        <ele>389.95</ele>
        <time>2021-08-29T09:48:52Z</time>
      </trkpt>
      <trkpt lat="43.11449" lon="-0.49232">
        <ele>389.47</ele>
        <time>2021-08-29T09:48:53Z</time>
      </trkpt>
      <trkpt lat="43.11445" lon="-0.49227">
        <ele>389.47</ele>
        <time>2021-08-29T09:48:54Z</time>
      </trkpt>
      <trkpt lat="43.11442" lon="-0.49221">
        <ele>389.47</ele>
        <time>2021-08-29T09:48:55Z</time>
      </trkpt>
      <trkpt lat="43.11441" lon="-0.49215">
        <ele>389.47</ele>
        <time>2021-08-29T09:48:56Z</time>
      </trkpt>
      <trkpt lat="43.11439" lon="-0.4921">
        <ele>389.47</ele>
        <time>2021-08-29T09:48:57Z</time>
      </trkpt>
      <trkpt lat="43.11437" lon="-0.49205">
        <ele>389.47</ele>
        <time>2021-08-29T09:48:58Z</time>
      </trkpt>
      <trkpt lat="43.11435" lon="-0.49201">
        <ele>390.91</ele>
        <time>2021-08-29T09:48:59Z</time>
      </trkpt>
      <trkpt lat="43.11433" lon="-0.49198">
        <ele>391.39</ele>
        <time>2021-08-29T09:49:00Z</time>
      </trkpt>
      <trkpt lat="43.1143" lon="-0.49196">
        <ele>391.39</ele>
        <time>2021-08-29T09:49:01Z</time>
      </trkpt>
      <trkpt lat="43.11428" lon="-0.49194">
        <ele>391.39</ele>
        <time>2021-08-29T09:49:02Z</time>
      </trkpt>
      <trkpt lat="43.11425" lon="-0.49193">
        <ele>391.87</ele>
        <time>2021-08-29T09:49:03Z</time>
      </trkpt>
      <trkpt lat="43.11422" lon="-0.49192">
        <ele>391.87</ele>
        <time>2021-08-29T09:49:04Z</time>
      </trkpt>
      <trkpt lat="43.1142" lon="-0.49191">
        <ele>392.36</ele>
        <time>2021-08-29T09:49:05Z</time>
      </trkpt>
      <trkpt lat="43.11418" lon="-0.49189">
        <ele>392.36</ele>
        <time>2021-08-29T09:49:06Z</time>
      </trkpt>
      <trkpt lat="43.11382" lon="-0.49167">
        <ele>394.28</ele>
        <time>2021-08-29T09:49:18Z</time>
      </trkpt>
      <trkpt lat="43.11349" lon="-0.49159">
        <ele>394.76</ele>
        <time>2021-08-29T09:49:27Z</time>
      </trkpt>
      <trkpt lat="43.11314" lon="-0.49174">
        <ele>395.72</ele>
        <time>2021-08-29T09:49:37Z</time>
      </trkpt>
      <trkpt lat="43.11285" lon="-0.49154">
        <ele>398.12</ele>
        <time>2021-08-29T09:49:48Z</time>
      </trkpt>
      <trkpt lat="43.1126" lon="-0.49151">
        <ele>400.53</ele>
        <time>2021-08-29T09:49:58Z</time>
      </trkpt>
      <trkpt lat="43.11258" lon="-0.49151">
        <ele>400.53</ele>
        <time>2021-08-29T09:49:59Z</time>
      </trkpt>
      <trkpt lat="43.11224" lon="-0.49158">
        <ele>399.57</ele>
        <time>2021-08-29T09:50:09Z</time>
      </trkpt>
      <trkpt lat="43.11218" lon="-0.49159">
        <ele>399.08</ele>
        <time>2021-08-29T09:50:10Z</time>
      </trkpt>
      <trkpt lat="43.11213" lon="-0.49161">
        <ele>398.12</ele>
        <time>2021-08-29T09:50:11Z</time>
      </trkpt>
      <trkpt lat="43.11206" lon="-0.49161">
        <ele>397.64</ele>
        <time>2021-08-29T09:50:12Z</time>
      </trkpt>
      <trkpt lat="43.11199" lon="-0.4916">
        <ele>396.2</ele>
        <time>2021-08-29T09:50:13Z</time>
      </trkpt>
      <trkpt lat="43.11191" lon="-0.49156">
        <ele>395.24</ele>
        <time>2021-08-29T09:50:14Z</time>
      </trkpt>
      <trkpt lat="43.11184" lon="-0.49152">
        <ele>393.8</ele>
        <time>2021-08-29T09:50:15Z</time>
      </trkpt>
      <trkpt lat="43.11175" lon="-0.49148">
        <ele>393.32</ele>
        <time>2021-08-29T09:50:16Z</time>
      </trkpt>
      <trkpt lat="43.11167" lon="-0.49147">
        <ele>393.32</ele>
        <time>2021-08-29T09:50:17Z</time>
      </trkpt>
      <trkpt lat="43.11159" lon="-0.49148">
        <ele>393.32</ele>
        <time>2021-08-29T09:50:18Z</time>
      </trkpt>
      <trkpt lat="43.11152" lon="-0.4915">
        <ele>393.32</ele>
        <time>2021-08-29T09:50:19Z</time>
      </trkpt>
      <trkpt lat="43.11145" lon="-0.49153">
        <ele>393.32</ele>
        <time>2021-08-29T09:50:20Z</time>
      </trkpt>
      <trkpt lat="43.11133" lon="-0.49156">
        <ele>394.28</ele>
        <time>2021-08-29T09:50:22Z</time>
      </trkpt>
      <trkpt lat="43.11128" lon="-0.49156">
        <ele>394.76</ele>
        <time>2021-08-29T09:50:23Z</time>
      </trkpt>
      <trkpt lat="43.11123" lon="-0.49156">
        <ele>394.76</ele>
        <time>2021-08-29T09:50:24Z</time>
      </trkpt>
      <trkpt lat="43.11119" lon="-0.49155">
        <ele>394.76</ele>
        <time>2021-08-29T09:50:25Z</time>
      </trkpt>
      <trkpt lat="43.11113" lon="-0.49153">
        <ele>394.76</ele>
        <time>2021-08-29T09:50:26Z</time>
      </trkpt>
      <trkpt lat="43.11107" lon="-0.4915">
        <ele>394.76</ele>
        <time>2021-08-29T09:50:27Z</time>
      </trkpt>
      <trkpt lat="43.111" lon="-0.49144">
        <ele>392.84</ele>
        <time>2021-08-29T09:50:28Z</time>
      </trkpt>
      <trkpt lat="43.11095" lon="-0.49136">
        <ele>391.87</ele>
        <time>2021-08-29T09:50:29Z</time>
      </trkpt>
      <trkpt lat="43.11093" lon="-0.49128">
        <ele>390.43</ele>
        <time>2021-08-29T09:50:30Z</time>
      </trkpt>
      <trkpt lat="43.11091" lon="-0.49118">
        <ele>389.47</ele>
        <time>2021-08-29T09:50:31Z</time>
      </trkpt>
      <trkpt lat="43.11088" lon="-0.4911">
        <ele>388.51</ele>
        <time>2021-08-29T09:50:32Z</time>
      </trkpt>
      <trkpt lat="43.11083" lon="-0.49103">
        <ele>387.55</ele>
        <time>2021-08-29T09:50:33Z</time>
      </trkpt>
      <trkpt lat="43.11077" lon="-0.49098">
        <ele>386.59</ele>
        <time>2021-08-29T09:50:34Z</time>
      </trkpt>
      <trkpt lat="43.1107" lon="-0.49095">
        <ele>385.63</ele>
        <time>2021-08-29T09:50:35Z</time>
      </trkpt>
      <trkpt lat="43.11063" lon="-0.49093">
        <ele>385.15</ele>
        <time>2021-08-29T09:50:36Z</time>
      </trkpt>
      <trkpt lat="43.11058" lon="-0.49087">
        <ele>384.18</ele>
        <time>2021-08-29T09:50:37Z</time>
      </trkpt>
      <trkpt lat="43.11054" lon="-0.49081">
        <ele>382.74</ele>
        <time>2021-08-29T09:50:38Z</time>
      </trkpt>
      <trkpt lat="43.11053" lon="-0.49073">
        <ele>381.78</ele>
        <time>2021-08-29T09:50:39Z</time>
      </trkpt>
      <trkpt lat="43.11053" lon="-0.49064">
        <ele>380.82</ele>
        <time>2021-08-29T09:50:40Z</time>
      </trkpt>
      <trkpt lat="43.11052" lon="-0.49053">
        <ele>379.86</ele>
        <time>2021-08-29T09:50:41Z</time>
      </trkpt>
      <trkpt lat="43.1105" lon="-0.49043">
        <ele>378.9</ele>
        <time>2021-08-29T09:50:42Z</time>
      </trkpt>
      <trkpt lat="43.11048" lon="-0.49035">
        <ele>378.9</ele>
        <time>2021-08-29T09:50:43Z</time>
      </trkpt>
      <trkpt lat="43.11044" lon="-0.49025">
        <ele>378.42</ele>
        <time>2021-08-29T09:50:44Z</time>
      </trkpt>
      <trkpt lat="43.11039" lon="-0.49018">
        <ele>378.42</ele>
        <time>2021-08-29T09:50:45Z</time>
      </trkpt>
      <trkpt lat="43.11035" lon="-0.49011">
        <ele>378.42</ele>
        <time>2021-08-29T09:50:46Z</time>
      </trkpt>
      <trkpt lat="43.11029" lon="-0.49006">
        <ele>378.42</ele>
        <time>2021-08-29T09:50:47Z</time>
      </trkpt>
      <trkpt lat="43.11024" lon="-0.49002">
        <ele>378.42</ele>
        <time>2021-08-29T09:50:48Z</time>
      </trkpt>
      <trkpt lat="43.11002" lon="-0.48986">
        <ele>379.86</ele>
        <time>2021-08-29T09:50:53Z</time>
      </trkpt>
      <trkpt lat="43.10998" lon="-0.48984">
        <ele>379.86</ele>
        <time>2021-08-29T09:50:54Z</time>
      </trkpt>
      <trkpt lat="43.1097" lon="-0.48955">
        <ele>382.74</ele>
        <time>2021-08-29T09:51:04Z</time>
      </trkpt>
      <trkpt lat="43.10966" lon="-0.48945">
        <ele>384.18</ele>
        <time>2021-08-29T09:51:07Z</time>
      </trkpt>
      <trkpt lat="43.10964" lon="-0.48938">
        <ele>384.66</ele>
        <time>2021-08-29T09:51:09Z</time>
      </trkpt>
      <trkpt lat="43.10963" lon="-0.48936">
        <ele>384.66</ele>
        <time>2021-08-29T09:51:10Z</time>
      </trkpt>
      <trkpt lat="43.10961" lon="-0.48933">
        <ele>384.66</ele>
        <time>2021-08-29T09:51:11Z</time>
      </trkpt>
      <trkpt lat="43.10959" lon="-0.4893">
        <ele>385.15</ele>
        <time>2021-08-29T09:51:12Z</time>
      </trkpt>
      <trkpt lat="43.10957" lon="-0.48927">
        <ele>385.63</ele>
        <time>2021-08-29T09:51:13Z</time>
      </trkpt>
      <trkpt lat="43.10955" lon="-0.48924">
        <ele>385.63</ele>
        <time>2021-08-29T09:51:14Z</time>
      </trkpt>
      <trkpt lat="43.10954" lon="-0.48921">
        <ele>386.11</ele>
        <time>2021-08-29T09:51:15Z</time>
      </trkpt>
      <trkpt lat="43.10952" lon="-0.48919">
        <ele>386.11</ele>
        <time>2021-08-29T09:51:16Z</time>
      </trkpt>
      <trkpt lat="43.1095" lon="-0.48915">
        <ele>386.11</ele>
        <time>2021-08-29T09:51:17Z</time>
      </trkpt>
      <trkpt lat="43.10947" lon="-0.48912">
        <ele>386.11</ele>
        <time>2021-08-29T09:51:18Z</time>
      </trkpt>
      <trkpt lat="43.10943" lon="-0.48908">
        <ele>386.11</ele>
        <time>2021-08-29T09:51:19Z</time>
      </trkpt>
      <trkpt lat="43.10939" lon="-0.48904">
        <ele>386.11</ele>
        <time>2021-08-29T09:51:20Z</time>
      </trkpt>
      <trkpt lat="43.10936" lon="-0.489">
        <ele>386.11</ele>
        <time>2021-08-29T09:51:21Z</time>
      </trkpt>
      <trkpt lat="43.10934" lon="-0.48894">
        <ele>386.11</ele>
        <time>2021-08-29T09:51:22Z</time>
      </trkpt>
      <trkpt lat="43.10933" lon="-0.48887">
        <ele>386.11</ele>
        <time>2021-08-29T09:51:23Z</time>
      </trkpt>
      <trkpt lat="43.10932" lon="-0.48879">
        <ele>386.11</ele>
        <time>2021-08-29T09:51:24Z</time>
      </trkpt>
      <trkpt lat="43.10933" lon="-0.48872">
        <ele>386.11</ele>
        <time>2021-08-29T09:51:25Z</time>
      </trkpt>
      <trkpt lat="43.10933" lon="-0.48867">
        <ele>386.59</ele>
        <time>2021-08-29T09:51:26Z</time>
      </trkpt>
      <trkpt lat="43.10933" lon="-0.48852">
        <ele>388.51</ele>
        <time>2021-08-29T09:51:30Z</time>
      </trkpt>
      <trkpt lat="43.1092" lon="-0.48808">
        <ele>390.43</ele>
        <time>2021-08-29T09:51:44Z</time>
      </trkpt>
      <trkpt lat="43.10928" lon="-0.48826">
        <ele>390.91</ele>
        <time>2021-08-29T09:57:46Z</time>
      </trkpt>
      <trkpt lat="43.10928" lon="-0.48833">
        <ele>390.91</ele>
        <time>2021-08-29T09:57:47Z</time>
      </trkpt>
      <trkpt lat="43.10924" lon="-0.48852">
        <ele>392.84</ele>
        <time>2021-08-29T09:57:51Z</time>
      </trkpt>
      <trkpt lat="43.10923" lon="-0.48855">
        <ele>393.32</ele>
        <time>2021-08-29T09:57:52Z</time>
      </trkpt>
      <trkpt lat="43.10921" lon="-0.48858">
        <ele>393.32</ele>
        <time>2021-08-29T09:57:53Z</time>
      </trkpt>
      <trkpt lat="43.1092" lon="-0.48861">
        <ele>393.8</ele>
        <time>2021-08-29T09:57:54Z</time>
      </trkpt>
      <trkpt lat="43.10918" lon="-0.48863">
        <ele>393.8</ele>
        <time>2021-08-29T09:57:55Z</time>
      </trkpt>
      <trkpt lat="43.10917" lon="-0.48866">
        <ele>394.76</ele>
        <time>2021-08-29T09:57:56Z</time>
      </trkpt>
      <trkpt lat="43.10917" lon="-0.48869">
        <ele>394.76</ele>
        <time>2021-08-29T09:57:57Z</time>
      </trkpt>
      <trkpt lat="43.10916" lon="-0.48872">
        <ele>395.24</ele>
        <time>2021-08-29T09:57:58Z</time>
      </trkpt>
      <trkpt lat="43.10916" lon="-0.48875">
        <ele>395.24</ele>
        <time>2021-08-29T09:57:59Z</time>
      </trkpt>
      <trkpt lat="43.10916" lon="-0.48877">
        <ele>395.72</ele>
        <time>2021-08-29T09:58:00Z</time>
      </trkpt>
      <trkpt lat="43.10916" lon="-0.48879">
        <ele>395.72</ele>
        <time>2021-08-29T09:58:01Z</time>
      </trkpt>
      <trkpt lat="43.10924" lon="-0.48902">
        <ele>398.6</ele>
        <time>2021-08-29T09:58:12Z</time>
      </trkpt>
      <trkpt lat="43.10925" lon="-0.48904">
        <ele>398.6</ele>
        <time>2021-08-29T09:58:13Z</time>
      </trkpt>
      <trkpt lat="43.10925" lon="-0.48907">
        <ele>398.6</ele>
        <time>2021-08-29T09:58:14Z</time>
      </trkpt>
      <trkpt lat="43.10926" lon="-0.4891">
        <ele>399.08</ele>
        <time>2021-08-29T09:58:15Z</time>
      </trkpt>
      <trkpt lat="43.10927" lon="-0.48913">
        <ele>399.08</ele>
        <time>2021-08-29T09:58:16Z</time>
      </trkpt>
      <trkpt lat="43.10928" lon="-0.48915">
        <ele>399.57</ele>
        <time>2021-08-29T09:58:17Z</time>
      </trkpt>
      <trkpt lat="43.10929" lon="-0.48918">
        <ele>399.57</ele>
        <time>2021-08-29T09:58:18Z</time>
      </trkpt>
      <trkpt lat="43.1093" lon="-0.4892">
        <ele>400.05</ele>
        <time>2021-08-29T09:58:19Z</time>
      </trkpt>
      <trkpt lat="43.10931" lon="-0.48923">
        <ele>400.05</ele>
        <time>2021-08-29T09:58:20Z</time>
      </trkpt>
      <trkpt lat="43.10932" lon="-0.48925">
        <ele>400.05</ele>
        <time>2021-08-29T09:58:21Z</time>
      </trkpt>
      <trkpt lat="43.10938" lon="-0.48948">
        <ele>401.97</ele>
        <time>2021-08-29T09:58:31Z</time>
      </trkpt>
      <trkpt lat="43.1094" lon="-0.48957">
        <ele>402.45</ele>
        <time>2021-08-29T09:58:34Z</time>
      </trkpt>
      <trkpt lat="43.1094" lon="-0.4896">
        <ele>402.45</ele>
        <time>2021-08-29T09:58:35Z</time>
      </trkpt>
      <trkpt lat="43.10941" lon="-0.48963">
        <ele>402.93</ele>
        <time>2021-08-29T09:58:36Z</time>
      </trkpt>
      <trkpt lat="43.10941" lon="-0.48966">
        <ele>403.41</ele>
        <time>2021-08-29T09:58:37Z</time>
      </trkpt>
      <trkpt lat="43.10942" lon="-0.48969">
        <ele>402.93</ele>
        <time>2021-08-29T09:58:38Z</time>
      </trkpt>
      <trkpt lat="43.10942" lon="-0.48972">
        <ele>403.41</ele>
        <time>2021-08-29T09:58:39Z</time>
      </trkpt>
      <trkpt lat="43.10957" lon="-0.48998">
        <ele>405.81</ele>
        <time>2021-08-29T09:58:54Z</time>
      </trkpt>
      <trkpt lat="43.10962" lon="-0.49006">
        <ele>406.29</ele>
        <time>2021-08-29T09:58:59Z</time>
      </trkpt>
      <trkpt lat="43.10963" lon="-0.49007">
        <ele>406.29</ele>
        <time>2021-08-29T09:59:00Z</time>
      </trkpt>
      <trkpt lat="43.10981" lon="-0.49025">
        <ele>408.7</ele>
        <time>2021-08-29T09:59:14Z</time>
      </trkpt>
      <trkpt lat="43.1099" lon="-0.49047">
        <ele>411.1</ele>
        <time>2021-08-29T09:59:26Z</time>
      </trkpt>
      <trkpt lat="43.10989" lon="-0.49049">
        <ele>411.1</ele>
        <time>2021-08-29T09:59:27Z</time>
      </trkpt>
      <trkpt lat="43.10989" lon="-0.4905">
        <ele>411.58</ele>
        <time>2021-08-29T09:59:28Z</time>
      </trkpt>
      <trkpt lat="43.10988" lon="-0.49052">
        <ele>411.58</ele>
        <time>2021-08-29T09:59:29Z</time>
      </trkpt>
      <trkpt lat="43.10988" lon="-0.49054">
        <ele>411.58</ele>
        <time>2021-08-29T09:59:30Z</time>
      </trkpt>
      <trkpt lat="43.10987" lon="-0.49056">
        <ele>412.06</ele>
        <time>2021-08-29T09:59:31Z</time>
      </trkpt>
      <trkpt lat="43.10986" lon="-0.4906">
        <ele>412.06</ele>
        <time>2021-08-29T09:59:33Z</time>
      </trkpt>
      <trkpt lat="43.10986" lon="-0.49062">
        <ele>412.06</ele>
        <time>2021-08-29T09:59:34Z</time>
      </trkpt>
      <trkpt lat="43.10985" lon="-0.49064">
        <ele>412.54</ele>
        <time>2021-08-29T09:59:35Z</time>
      </trkpt>
      <trkpt lat="43.10985" lon="-0.49066">
        <ele>412.54</ele>
        <time>2021-08-29T09:59:36Z</time>
      </trkpt>
      <trkpt lat="43.10985" lon="-0.49068">
        <ele>413.02</ele>
        <time>2021-08-29T09:59:37Z</time>
      </trkpt>
      <trkpt lat="43.10984" lon="-0.49069">
        <ele>413.02</ele>
        <time>2021-08-29T09:59:38Z</time>
      </trkpt>
      <trkpt lat="43.10984" lon="-0.49071">
        <ele>413.5</ele>
        <time>2021-08-29T09:59:39Z</time>
      </trkpt>
      <trkpt lat="43.10983" lon="-0.49072">
        <ele>413.5</ele>
        <time>2021-08-29T09:59:40Z</time>
      </trkpt>
      <trkpt lat="43.10979" lon="-0.49086">
        <ele>414.47</ele>
        <time>2021-08-29T09:59:49Z</time>
      </trkpt>
      <trkpt lat="43.10977" lon="-0.49092">
        <ele>414.95</ele>
        <time>2021-08-29T09:59:53Z</time>
      </trkpt>
      <trkpt lat="43.10971" lon="-0.49109">
        <ele>416.87</ele>
        <time>2021-08-29T10:00:05Z</time>
      </trkpt>
      <trkpt lat="43.10968" lon="-0.49121">
        <ele>417.83</ele>
        <time>2021-08-29T10:00:11Z</time>
      </trkpt>
      <trkpt lat="43.10968" lon="-0.49123">
        <ele>418.31</ele>
        <time>2021-08-29T10:00:12Z</time>
      </trkpt>
      <trkpt lat="43.10968" lon="-0.49125">
        <ele>418.31</ele>
        <time>2021-08-29T10:00:13Z</time>
      </trkpt>
      <trkpt lat="43.10957" lon="-0.49145">
        <ele>420.23</ele>
        <time>2021-08-29T10:00:25Z</time>
      </trkpt>
      <trkpt lat="43.10949" lon="-0.4916">
        <ele>422.16</ele>
        <time>2021-08-29T10:00:33Z</time>
      </trkpt>
      <trkpt lat="43.10948" lon="-0.49162">
        <ele>422.16</ele>
        <time>2021-08-29T10:00:34Z</time>
      </trkpt>
      <trkpt lat="43.10946" lon="-0.49164">
        <ele>422.64</ele>
        <time>2021-08-29T10:00:35Z</time>
      </trkpt>
      <trkpt lat="43.10945" lon="-0.49165">
        <ele>422.64</ele>
        <time>2021-08-29T10:00:36Z</time>
      </trkpt>
      <trkpt lat="43.10926" lon="-0.49184">
        <ele>424.56</ele>
        <time>2021-08-29T10:00:49Z</time>
      </trkpt>
      <trkpt lat="43.10901" lon="-0.49193">
        <ele>427.44</ele>
        <time>2021-08-29T10:01:04Z</time>
      </trkpt>
      <trkpt lat="43.1087" lon="-0.49203">
        <ele>429.85</ele>
        <time>2021-08-29T10:01:19Z</time>
      </trkpt>
      <trkpt lat="43.10851" lon="-0.49218">
        <ele>432.73</ele>
        <time>2021-08-29T10:01:36Z</time>
      </trkpt>
      <trkpt lat="43.1085" lon="-0.49221">
        <ele>432.73</ele>
        <time>2021-08-29T10:01:38Z</time>
      </trkpt>
      <trkpt lat="43.1085" lon="-0.49223">
        <ele>433.21</ele>
        <time>2021-08-29T10:01:39Z</time>
      </trkpt>
      <trkpt lat="43.10851" lon="-0.49226">
        <ele>433.21</ele>
        <time>2021-08-29T10:01:40Z</time>
      </trkpt>
      <trkpt lat="43.10851" lon="-0.49229">
        <ele>433.21</ele>
        <time>2021-08-29T10:01:41Z</time>
      </trkpt>
      <trkpt lat="43.10852" lon="-0.49232">
        <ele>433.21</ele>
        <time>2021-08-29T10:01:42Z</time>
      </trkpt>
      <trkpt lat="43.1087" lon="-0.49257">
        <ele>436.1</ele>
        <time>2021-08-29T10:01:55Z</time>
      </trkpt>
      <trkpt lat="43.10887" lon="-0.49281">
        <ele>437.54</ele>
        <time>2021-08-29T10:02:08Z</time>
      </trkpt>
      <trkpt lat="43.1089" lon="-0.49287">
        <ele>438.02</ele>
        <time>2021-08-29T10:02:11Z</time>
      </trkpt>
      <trkpt lat="43.10891" lon="-0.4929">
        <ele>438.5</ele>
        <time>2021-08-29T10:02:12Z</time>
      </trkpt>
      <trkpt lat="43.10891" lon="-0.49292">
        <ele>438.5</ele>
        <time>2021-08-29T10:02:13Z</time>
      </trkpt>
      <trkpt lat="43.10892" lon="-0.49294">
        <ele>438.5</ele>
        <time>2021-08-29T10:02:14Z</time>
      </trkpt>
      <trkpt lat="43.10892" lon="-0.49296">
        <ele>438.5</ele>
        <time>2021-08-29T10:02:15Z</time>
      </trkpt>
      <trkpt lat="43.10892" lon="-0.49298">
        <ele>438.98</ele>
        <time>2021-08-29T10:02:16Z</time>
      </trkpt>
      <trkpt lat="43.10893" lon="-0.493">
        <ele>438.98</ele>
        <time>2021-08-29T10:02:17Z</time>
      </trkpt>
      <trkpt lat="43.10891" lon="-0.49328">
        <ele>442.34</ele>
        <time>2021-08-29T10:02:30Z</time>
      </trkpt>
      <trkpt lat="43.10885" lon="-0.4934">
        <ele>443.31</ele>
        <time>2021-08-29T10:02:37Z</time>
      </trkpt>
      <trkpt lat="43.10884" lon="-0.49342">
        <ele>443.31</ele>
        <time>2021-08-29T10:02:38Z</time>
      </trkpt>
      <trkpt lat="43.10882" lon="-0.49344">
        <ele>443.79</ele>
        <time>2021-08-29T10:02:39Z</time>
      </trkpt>
      <trkpt lat="43.10881" lon="-0.49346">
        <ele>444.27</ele>
        <time>2021-08-29T10:02:40Z</time>
      </trkpt>
      <trkpt lat="43.1088" lon="-0.49347">
        <ele>444.27</ele>
        <time>2021-08-29T10:02:41Z</time>
      </trkpt>
      <trkpt lat="43.10878" lon="-0.49349">
        <ele>444.27</ele>
        <time>2021-08-29T10:02:42Z</time>
      </trkpt>
      <trkpt lat="43.10857" lon="-0.49371">
        <ele>447.15</ele>
        <time>2021-08-29T10:02:57Z</time>
      </trkpt>
      <trkpt lat="43.10838" lon="-0.49391">
        <ele>450.03</ele>
        <time>2021-08-29T10:03:09Z</time>
      </trkpt>
      <trkpt lat="43.10819" lon="-0.4942">
        <ele>452.44</ele>
        <time>2021-08-29T10:03:24Z</time>
      </trkpt>
      <trkpt lat="43.10809" lon="-0.49445">
        <ele>455.32</ele>
        <time>2021-08-29T10:03:37Z</time>
      </trkpt>
      <trkpt lat="43.10815" lon="-0.49472">
        <ele>457.72</ele>
        <time>2021-08-29T10:03:50Z</time>
      </trkpt>
      <trkpt lat="43.10809" lon="-0.49499">
        <ele>460.13</ele>
        <time>2021-08-29T10:04:05Z</time>
      </trkpt>
      <trkpt lat="43.10803" lon="-0.49514">
        <ele>461.57</ele>
        <time>2021-08-29T10:04:15Z</time>
      </trkpt>
      <trkpt lat="43.10795" lon="-0.49532">
        <ele>463.49</ele>
        <time>2021-08-29T10:04:31Z</time>
      </trkpt>
      <trkpt lat="43.10792" lon="-0.49545">
        <ele>464.45</ele>
        <time>2021-08-29T10:04:54Z</time>
      </trkpt>
      <trkpt lat="43.10792" lon="-0.49547">
        <ele>464.93</ele>
        <time>2021-08-29T10:04:55Z</time>
      </trkpt>
      <trkpt lat="43.10789" lon="-0.49577">
        <ele>467.82</ele>
        <time>2021-08-29T10:05:09Z</time>
      </trkpt>
      <trkpt lat="43.10785" lon="-0.49607">
        <ele>469.74</ele>
        <time>2021-08-29T10:05:23Z</time>
      </trkpt>
      <trkpt lat="43.10784" lon="-0.49615">
        <ele>470.7</ele>
        <time>2021-08-29T10:05:27Z</time>
      </trkpt>
      <trkpt lat="43.10785" lon="-0.49636">
        <ele>472.14</ele>
        <time>2021-08-29T10:05:36Z</time>
      </trkpt>
      <trkpt lat="43.10786" lon="-0.49638">
        <ele>472.63</ele>
        <time>2021-08-29T10:05:37Z</time>
      </trkpt>
      <trkpt lat="43.10786" lon="-0.49641">
        <ele>472.63</ele>
        <time>2021-08-29T10:05:38Z</time>
      </trkpt>
      <trkpt lat="43.10786" lon="-0.4965">
        <ele>473.59</ele>
        <time>2021-08-29T10:05:42Z</time>
      </trkpt>
      <trkpt lat="43.10786" lon="-0.49652">
        <ele>473.59</ele>
        <time>2021-08-29T10:05:43Z</time>
      </trkpt>
      <trkpt lat="43.10787" lon="-0.49654">
        <ele>473.59</ele>
        <time>2021-08-29T10:05:44Z</time>
      </trkpt>
      <trkpt lat="43.10787" lon="-0.49656">
        <ele>473.59</ele>
        <time>2021-08-29T10:05:45Z</time>
      </trkpt>
      <trkpt lat="43.10788" lon="-0.49659">
        <ele>473.59</ele>
        <time>2021-08-29T10:05:46Z</time>
      </trkpt>
      <trkpt lat="43.10789" lon="-0.49661">
        <ele>474.07</ele>
        <time>2021-08-29T10:05:47Z</time>
      </trkpt>
      <trkpt lat="43.1079" lon="-0.49663">
        <ele>474.07</ele>
        <time>2021-08-29T10:05:48Z</time>
      </trkpt>
      <trkpt lat="43.10808" lon="-0.49687">
        <ele>475.03</ele>
        <time>2021-08-29T10:06:02Z</time>
      </trkpt>
      <trkpt lat="43.10823" lon="-0.49684">
        <ele>475.99</ele>
        <time>2021-08-29T10:06:08Z</time>
      </trkpt>
      <trkpt lat="43.1084" lon="-0.49657">
        <ele>479.35</ele>
        <time>2021-08-29T10:06:22Z</time>
      </trkpt>
      <trkpt lat="43.10856" lon="-0.49635">
        <ele>481.28</ele>
        <time>2021-08-29T10:06:36Z</time>
      </trkpt>
      <trkpt lat="43.1088" lon="-0.49623">
        <ele>484.64</ele>
        <time>2021-08-29T10:06:50Z</time>
      </trkpt>
      <trkpt lat="43.10897" lon="-0.4964">
        <ele>487.05</ele>
        <time>2021-08-29T10:07:05Z</time>
      </trkpt>
      <trkpt lat="43.10911" lon="-0.49667">
        <ele>489.93</ele>
        <time>2021-08-29T10:07:21Z</time>
      </trkpt>
      <trkpt lat="43.10926" lon="-0.49685">
        <ele>492.81</ele>
        <time>2021-08-29T10:07:36Z</time>
      </trkpt>
      <trkpt lat="43.10937" lon="-0.49691">
        <ele>494.26</ele>
        <time>2021-08-29T10:07:45Z</time>
      </trkpt>
      <trkpt lat="43.10938" lon="-0.49692">
        <ele>494.74</ele>
        <time>2021-08-29T10:07:46Z</time>
      </trkpt>
      <trkpt lat="43.10939" lon="-0.49694">
        <ele>494.74</ele>
        <time>2021-08-29T10:07:47Z</time>
      </trkpt>
      <trkpt lat="43.10958" lon="-0.49708">
        <ele>496.66</ele>
        <time>2021-08-29T10:08:01Z</time>
      </trkpt>
      <trkpt lat="43.10984" lon="-0.49713">
        <ele>497.62</ele>
        <time>2021-08-29T10:08:13Z</time>
      </trkpt>
      <trkpt lat="43.11003" lon="-0.49683">
        <ele>499.54</ele>
        <time>2021-08-29T10:08:26Z</time>
      </trkpt>
      <trkpt lat="43.11026" lon="-0.49669">
        <ele>501.95</ele>
        <time>2021-08-29T10:08:39Z</time>
      </trkpt>
      <trkpt lat="43.11032" lon="-0.49641">
        <ele>505.31</ele>
        <time>2021-08-29T10:08:52Z</time>
      </trkpt>
      <trkpt lat="43.11037" lon="-0.49617">
        <ele>507.71</ele>
        <time>2021-08-29T10:09:05Z</time>
      </trkpt>
      <trkpt lat="43.1104" lon="-0.49585">
        <ele>510.12</ele>
        <time>2021-08-29T10:09:19Z</time>
      </trkpt>
      <trkpt lat="43.1104" lon="-0.49577">
        <ele>510.6</ele>
        <time>2021-08-29T10:09:23Z</time>
      </trkpt>
      <trkpt lat="43.11041" lon="-0.49574">
        <ele>511.08</ele>
        <time>2021-08-29T10:09:24Z</time>
      </trkpt>
      <trkpt lat="43.11041" lon="-0.49572">
        <ele>511.08</ele>
        <time>2021-08-29T10:09:25Z</time>
      </trkpt>
      <trkpt lat="43.11041" lon="-0.4957">
        <ele>511.08</ele>
        <time>2021-08-29T10:09:26Z</time>
      </trkpt>
      <trkpt lat="43.11042" lon="-0.49566">
        <ele>511.08</ele>
        <time>2021-08-29T10:09:27Z</time>
      </trkpt>
      <trkpt lat="43.11045" lon="-0.49558">
        <ele>512.04</ele>
        <time>2021-08-29T10:09:30Z</time>
      </trkpt>
      <trkpt lat="43.1105" lon="-0.49553">
        <ele>512.04</ele>
        <time>2021-08-29T10:09:34Z</time>
      </trkpt>
      <trkpt lat="43.11056" lon="-0.49567">
        <ele>513.48</ele>
        <time>2021-08-29T10:09:43Z</time>
      </trkpt>
      <trkpt lat="43.11054" lon="-0.49581">
        <ele>514.92</ele>
        <time>2021-08-29T10:09:51Z</time>
      </trkpt>
      <trkpt lat="43.11059" lon="-0.49618">
        <ele>517.33</ele>
        <time>2021-08-29T10:10:07Z</time>
      </trkpt>
      <trkpt lat="43.11064" lon="-0.49649">
        <ele>519.73</ele>
        <time>2021-08-29T10:10:21Z</time>
      </trkpt>
      <trkpt lat="43.11066" lon="-0.49687">
        <ele>522.61</ele>
        <time>2021-08-29T10:10:39Z</time>
      </trkpt>
      <trkpt lat="43.11061" lon="-0.49722">
        <ele>525.02</ele>
        <time>2021-08-29T10:10:54Z</time>
      </trkpt>
      <trkpt lat="43.11047" lon="-0.49752">
        <ele>527.9</ele>
        <time>2021-08-29T10:11:10Z</time>
      </trkpt>
      <trkpt lat="43.11047" lon="-0.49754">
        <ele>528.38</ele>
        <time>2021-08-29T10:11:11Z</time>
      </trkpt>
      <trkpt lat="43.11038" lon="-0.49791">
        <ele>531.75</ele>
        <time>2021-08-29T10:11:29Z</time>
      </trkpt>
      <trkpt lat="43.11029" lon="-0.49823">
        <ele>534.15</ele>
        <time>2021-08-29T10:11:46Z</time>
      </trkpt>
      <trkpt lat="43.11013" lon="-0.49857">
        <ele>535.11</ele>
        <time>2021-08-29T10:12:02Z</time>
      </trkpt>
      <trkpt lat="43.10983" lon="-0.49881">
        <ele>537.99</ele>
        <time>2021-08-29T10:12:18Z</time>
      </trkpt>
      <trkpt lat="43.10963" lon="-0.49889">
        <ele>541.36</ele>
        <time>2021-08-29T10:12:28Z</time>
      </trkpt>
      <trkpt lat="43.10932" lon="-0.49913">
        <ele>544.24</ele>
        <time>2021-08-29T10:12:45Z</time>
      </trkpt>
      <trkpt lat="43.10899" lon="-0.49926">
        <ele>540.88</ele>
        <time>2021-08-29T10:12:53Z</time>
      </trkpt>
      <trkpt lat="43.10867" lon="-0.49931">
        <ele>539.44</ele>
        <time>2021-08-29T10:12:58Z</time>
      </trkpt>
      <trkpt lat="43.10861" lon="-0.49934">
        <ele>538.96</ele>
        <time>2021-08-29T10:12:59Z</time>
      </trkpt>
      <trkpt lat="43.10857" lon="-0.49937">
        <ele>538.96</ele>
        <time>2021-08-29T10:13:00Z</time>
      </trkpt>
      <trkpt lat="43.10853" lon="-0.49942">
        <ele>538.96</ele>
        <time>2021-08-29T10:13:01Z</time>
      </trkpt>
      <trkpt lat="43.1085" lon="-0.49947">
        <ele>538.96</ele>
        <time>2021-08-29T10:13:02Z</time>
      </trkpt>
      <trkpt lat="43.10848" lon="-0.49951">
        <ele>538.96</ele>
        <time>2021-08-29T10:13:03Z</time>
      </trkpt>
      <trkpt lat="43.10846" lon="-0.49956">
        <ele>540.4</ele>
        <time>2021-08-29T10:13:04Z</time>
      </trkpt>
      <trkpt lat="43.10843" lon="-0.49964">
        <ele>540.88</ele>
        <time>2021-08-29T10:13:06Z</time>
      </trkpt>
      <trkpt lat="43.10832" lon="-0.50001">
        <ele>544.24</ele>
        <time>2021-08-29T10:13:18Z</time>
      </trkpt>
      <trkpt lat="43.10824" lon="-0.50041">
        <ele>547.61</ele>
        <time>2021-08-29T10:13:32Z</time>
      </trkpt>
      <trkpt lat="43.10821" lon="-0.50057">
        <ele>549.05</ele>
        <time>2021-08-29T10:13:39Z</time>
      </trkpt>
      <trkpt lat="43.1082" lon="-0.50059">
        <ele>549.53</ele>
        <time>2021-08-29T10:13:40Z</time>
      </trkpt>
      <trkpt lat="43.10819" lon="-0.50061">
        <ele>549.53</ele>
        <time>2021-08-29T10:13:41Z</time>
      </trkpt>
      <trkpt lat="43.10818" lon="-0.50064">
        <ele>549.53</ele>
        <time>2021-08-29T10:13:42Z</time>
      </trkpt>
      <trkpt lat="43.10818" lon="-0.50066">
        <ele>549.53</ele>
        <time>2021-08-29T10:13:43Z</time>
      </trkpt>
      <trkpt lat="43.10807" lon="-0.50099">
        <ele>552.41</ele>
        <time>2021-08-29T10:13:59Z</time>
      </trkpt>
      <trkpt lat="43.10796" lon="-0.50125">
        <ele>555.3</ele>
        <time>2021-08-29T10:14:14Z</time>
      </trkpt>
      <trkpt lat="43.10785" lon="-0.50152">
        <ele>558.18</ele>
        <time>2021-08-29T10:14:31Z</time>
      </trkpt>
      <trkpt lat="43.10784" lon="-0.50154">
        <ele>558.18</ele>
        <time>2021-08-29T10:14:32Z</time>
      </trkpt>
      <trkpt lat="43.10782" lon="-0.5016">
        <ele>559.14</ele>
        <time>2021-08-29T10:14:36Z</time>
      </trkpt>
      <trkpt lat="43.10771" lon="-0.50182">
        <ele>561.55</ele>
        <time>2021-08-29T10:14:51Z</time>
      </trkpt>
      <trkpt lat="43.10759" lon="-0.502">
        <ele>564.43</ele>
        <time>2021-08-29T10:15:04Z</time>
      </trkpt>
      <trkpt lat="43.10746" lon="-0.50226">
        <ele>566.83</ele>
        <time>2021-08-29T10:15:19Z</time>
      </trkpt>
      <trkpt lat="43.10731" lon="-0.5025">
        <ele>568.76</ele>
        <time>2021-08-29T10:15:33Z</time>
      </trkpt>
      <trkpt lat="43.10722" lon="-0.50269">
        <ele>570.68</ele>
        <time>2021-08-29T10:15:45Z</time>
      </trkpt>
      <trkpt lat="43.1071" lon="-0.50287">
        <ele>573.08</ele>
        <time>2021-08-29T10:15:56Z</time>
      </trkpt>
      <trkpt lat="43.10704" lon="-0.5029">
        <ele>573.56</ele>
        <time>2021-08-29T10:16:00Z</time>
      </trkpt>
      <trkpt lat="43.10702" lon="-0.50276">
        <ele>575.49</ele>
        <time>2021-08-29T10:16:10Z</time>
      </trkpt>
      <trkpt lat="43.10711" lon="-0.50248">
        <ele>577.89</ele>
        <time>2021-08-29T10:16:27Z</time>
      </trkpt>
      <trkpt lat="43.10716" lon="-0.5022">
        <ele>580.29</ele>
        <time>2021-08-29T10:16:43Z</time>
      </trkpt>
      <trkpt lat="43.10718" lon="-0.50188">
        <ele>583.18</ele>
        <time>2021-08-29T10:16:58Z</time>
      </trkpt>
      <trkpt lat="43.10718" lon="-0.50163">
        <ele>585.1</ele>
        <time>2021-08-29T10:17:10Z</time>
      </trkpt>
      <trkpt lat="43.10714" lon="-0.50135">
        <ele>587.5</ele>
        <time>2021-08-29T10:17:24Z</time>
      </trkpt>
      <trkpt lat="43.10705" lon="-0.50105">
        <ele>590.39</ele>
        <time>2021-08-29T10:17:39Z</time>
      </trkpt>
      <trkpt lat="43.10695" lon="-0.50078">
        <ele>592.79</ele>
        <time>2021-08-29T10:17:53Z</time>
      </trkpt>
      <trkpt lat="43.10676" lon="-0.50041">
        <ele>595.67</ele>
        <time>2021-08-29T10:18:11Z</time>
      </trkpt>
      <trkpt lat="43.10653" lon="-0.50017">
        <ele>598.56</ele>
        <time>2021-08-29T10:18:29Z</time>
      </trkpt>
      <trkpt lat="43.10638" lon="-0.50006">
        <ele>600.96</ele>
        <time>2021-08-29T10:18:39Z</time>
      </trkpt>
      <trkpt lat="43.10614" lon="-0.49993">
        <ele>603.85</ele>
        <time>2021-08-29T10:18:55Z</time>
      </trkpt>
      <trkpt lat="43.10592" lon="-0.49977">
        <ele>606.25</ele>
        <time>2021-08-29T10:19:11Z</time>
      </trkpt>
      <trkpt lat="43.10591" lon="-0.49977">
        <ele>606.25</ele>
        <time>2021-08-29T10:19:12Z</time>
      </trkpt>
      <trkpt lat="43.10566" lon="-0.49974">
        <ele>609.13</ele>
        <time>2021-08-29T10:19:28Z</time>
      </trkpt>
      <trkpt lat="43.1055" lon="-0.49962">
        <ele>612.5</ele>
        <time>2021-08-29T10:19:41Z</time>
      </trkpt>
      <trkpt lat="43.10526" lon="-0.49945">
        <ele>615.38</ele>
        <time>2021-08-29T10:19:59Z</time>
      </trkpt>
      <trkpt lat="43.10515" lon="-0.49943">
        <ele>617.3</ele>
        <time>2021-08-29T10:20:07Z</time>
      </trkpt>
      <trkpt lat="43.10496" lon="-0.49931">
        <ele>618.26</ele>
        <time>2021-08-29T10:20:22Z</time>
      </trkpt>
      <trkpt lat="43.10492" lon="-0.49909">
        <ele>620.67</ele>
        <time>2021-08-29T10:20:34Z</time>
      </trkpt>
      <trkpt lat="43.10489" lon="-0.49887">
        <ele>622.11</ele>
        <time>2021-08-29T10:20:45Z</time>
      </trkpt>
      <trkpt lat="43.10488" lon="-0.49855">
        <ele>625.47</ele>
        <time>2021-08-29T10:21:00Z</time>
      </trkpt>
      <trkpt lat="43.10487" lon="-0.49816">
        <ele>628.84</ele>
        <time>2021-08-29T10:21:17Z</time>
      </trkpt>
      <trkpt lat="43.10484" lon="-0.49786">
        <ele>632.2</ele>
        <time>2021-08-29T10:21:33Z</time>
      </trkpt>
      <trkpt lat="43.10481" lon="-0.49762">
        <ele>634.13</ele>
        <time>2021-08-29T10:21:46Z</time>
      </trkpt>
      <trkpt lat="43.10477" lon="-0.49741">
        <ele>636.53</ele>
        <time>2021-08-29T10:21:56Z</time>
      </trkpt>
      <trkpt lat="43.10477" lon="-0.49709">
        <ele>638.93</ele>
        <time>2021-08-29T10:22:12Z</time>
      </trkpt>
      <trkpt lat="43.10476" lon="-0.49686">
        <ele>640.86</ele>
        <time>2021-08-29T10:22:23Z</time>
      </trkpt>
      <trkpt lat="43.10474" lon="-0.49674">
        <ele>641.82</ele>
        <time>2021-08-29T10:22:28Z</time>
      </trkpt>
      <trkpt lat="43.10474" lon="-0.49641">
        <ele>645.18</ele>
        <time>2021-08-29T10:22:44Z</time>
      </trkpt>
      <trkpt lat="43.10465" lon="-0.49609">
        <ele>648.07</ele>
        <time>2021-08-29T10:22:59Z</time>
      </trkpt>
      <trkpt lat="43.10459" lon="-0.49579">
        <ele>650.47</ele>
        <time>2021-08-29T10:23:14Z</time>
      </trkpt>
      <trkpt lat="43.10451" lon="-0.49552">
        <ele>653.35</ele>
        <time>2021-08-29T10:23:28Z</time>
      </trkpt>
      <trkpt lat="43.1044" lon="-0.49515">
        <ele>655.76</ele>
        <time>2021-08-29T10:23:45Z</time>
      </trkpt>
      <trkpt lat="43.10434" lon="-0.49489">
        <ele>658.16</ele>
        <time>2021-08-29T10:24:00Z</time>
      </trkpt>
      <trkpt lat="43.10428" lon="-0.49453">
        <ele>661.04</ele>
        <time>2021-08-29T10:24:15Z</time>
      </trkpt>
      <trkpt lat="43.10423" lon="-0.49431">
        <ele>662.49</ele>
        <time>2021-08-29T10:24:23Z</time>
      </trkpt>
      <trkpt lat="43.10419" lon="-0.49429">
        <ele>663.45</ele>
        <time>2021-08-29T10:24:27Z</time>
      </trkpt>
      <trkpt lat="43.10418" lon="-0.49436">
        <ele>664.41</ele>
        <time>2021-08-29T10:24:32Z</time>
      </trkpt>
      <trkpt lat="43.10419" lon="-0.49456">
        <ele>665.85</ele>
        <time>2021-08-29T10:24:42Z</time>
      </trkpt>
      <trkpt lat="43.10417" lon="-0.49481">
        <ele>667.77</ele>
        <time>2021-08-29T10:24:56Z</time>
      </trkpt>
      <trkpt lat="43.10416" lon="-0.49487">
        <ele>668.73</ele>
        <time>2021-08-29T10:25:00Z</time>
      </trkpt>
      <trkpt lat="43.10414" lon="-0.49496">
        <ele>669.7</ele>
        <time>2021-08-29T10:25:05Z</time>
      </trkpt>
      <trkpt lat="43.10412" lon="-0.49514">
        <ele>671.62</ele>
        <time>2021-08-29T10:25:15Z</time>
      </trkpt>
      <trkpt lat="43.10411" lon="-0.4955">
        <ele>674.5</ele>
        <time>2021-08-29T10:25:31Z</time>
      </trkpt>
      <trkpt lat="43.1041" lon="-0.49583">
        <ele>676.42</ele>
        <time>2021-08-29T10:25:44Z</time>
      </trkpt>
      <trkpt lat="43.10409" lon="-0.49589">
        <ele>677.39</ele>
        <time>2021-08-29T10:25:47Z</time>
      </trkpt>
      <trkpt lat="43.10408" lon="-0.49603">
        <ele>678.83</ele>
        <time>2021-08-29T10:25:54Z</time>
      </trkpt>
      <trkpt lat="43.10399" lon="-0.49635">
        <ele>682.19</ele>
        <time>2021-08-29T10:26:11Z</time>
      </trkpt>
      <trkpt lat="43.10387" lon="-0.49665">
        <ele>685.08</ele>
        <time>2021-08-29T10:26:27Z</time>
      </trkpt>
      <trkpt lat="43.10383" lon="-0.49676">
        <ele>685.56</ele>
        <time>2021-08-29T10:26:32Z</time>
      </trkpt>
      <trkpt lat="43.1038" lon="-0.49686">
        <ele>686.04</ele>
        <time>2021-08-29T10:26:36Z</time>
      </trkpt>
      <trkpt lat="43.10366" lon="-0.49721">
        <ele>688.44</ele>
        <time>2021-08-29T10:26:51Z</time>
      </trkpt>
      <trkpt lat="43.10349" lon="-0.49741">
        <ele>688.44</ele>
        <time>2021-08-29T10:27:04Z</time>
      </trkpt>
      <trkpt lat="43.10349" lon="-0.49746">
        <ele>688.92</ele>
        <time>2021-08-29T10:27:19Z</time>
      </trkpt>
      <trkpt lat="43.10345" lon="-0.49747">
        <ele>689.4</ele>
        <time>2021-08-29T10:27:53Z</time>
      </trkpt>
      <trkpt lat="43.10344" lon="-0.49746">
        <ele>689.4</ele>
        <time>2021-08-29T10:28:11Z</time>
      </trkpt>
      <trkpt lat="43.10341" lon="-0.49747">
        <ele>689.4</ele>
        <time>2021-08-29T10:28:32Z</time>
      </trkpt>
      <trkpt lat="43.10341" lon="-0.49747">
        <ele>689.88</ele>
        <time>2021-08-29T10:29:04Z</time>
      </trkpt>
      <trkpt lat="43.1034" lon="-0.49742">
        <ele>689.88</ele>
        <time>2021-08-29T10:29:36Z</time>
      </trkpt>
      <trkpt lat="43.10338" lon="-0.49743">
        <ele>689.88</ele>
        <time>2021-08-29T10:30:03Z</time>
      </trkpt>
      <trkpt lat="43.10348" lon="-0.49747">
        <ele>690.36</ele>
        <time>2021-08-29T10:30:36Z</time>
      </trkpt>
      <trkpt lat="43.10345" lon="-0.49746">
        <ele>690.36</ele>
        <time>2021-08-29T10:30:59Z</time>
      </trkpt>
      <trkpt lat="43.10338" lon="-0.4975">
        <ele>690.36</ele>
        <time>2021-08-29T10:31:11Z</time>
      </trkpt>
      <trkpt lat="43.10334" lon="-0.49752">
        <ele>690.84</ele>
        <time>2021-08-29T10:31:27Z</time>
      </trkpt>
      <trkpt lat="43.10322" lon="-0.49754">
        <ele>691.33</ele>
        <time>2021-08-29T10:31:34Z</time>
      </trkpt>
      <trkpt lat="43.10313" lon="-0.49755">
        <ele>691.33</ele>
        <time>2021-08-29T10:31:39Z</time>
      </trkpt>
      <trkpt lat="43.10287" lon="-0.4975">
        <ele>694.69</ele>
        <time>2021-08-29T10:31:53Z</time>
      </trkpt>
      <trkpt lat="43.1028" lon="-0.49749">
        <ele>695.17</ele>
        <time>2021-08-29T10:31:57Z</time>
      </trkpt>
      <trkpt lat="43.1027" lon="-0.49748">
        <ele>696.61</ele>
        <time>2021-08-29T10:32:03Z</time>
      </trkpt>
      <trkpt lat="43.10249" lon="-0.49759">
        <ele>699.98</ele>
        <time>2021-08-29T10:32:18Z</time>
      </trkpt>
      <trkpt lat="43.10231" lon="-0.49773">
        <ele>702.38</ele>
        <time>2021-08-29T10:32:32Z</time>
      </trkpt>
      <trkpt lat="43.10227" lon="-0.49775">
        <ele>702.86</ele>
        <time>2021-08-29T10:32:35Z</time>
      </trkpt>
      <trkpt lat="43.1021" lon="-0.49794">
        <ele>706.23</ele>
        <time>2021-08-29T10:32:51Z</time>
      </trkpt>
      <trkpt lat="43.10203" lon="-0.49804">
        <ele>707.67</ele>
        <time>2021-08-29T10:32:58Z</time>
      </trkpt>
      <trkpt lat="43.10189" lon="-0.49827">
        <ele>710.07</ele>
        <time>2021-08-29T10:33:15Z</time>
      </trkpt>
      <trkpt lat="43.10184" lon="-0.49837">
        <ele>711.99</ele>
        <time>2021-08-29T10:33:24Z</time>
      </trkpt>
      <trkpt lat="43.10183" lon="-0.49843">
        <ele>711.99</ele>
        <time>2021-08-29T10:33:27Z</time>
      </trkpt>
      <trkpt lat="43.1018" lon="-0.4985">
        <ele>712.95</ele>
        <time>2021-08-29T10:33:32Z</time>
      </trkpt>
      <trkpt lat="43.10179" lon="-0.49854">
        <ele>713.44</ele>
        <time>2021-08-29T10:33:34Z</time>
      </trkpt>
      <trkpt lat="43.1018" lon="-0.49877">
        <ele>716.8</ele>
        <time>2021-08-29T10:33:48Z</time>
      </trkpt>
      <trkpt lat="43.10183" lon="-0.4989">
        <ele>717.76</ele>
        <time>2021-08-29T10:33:56Z</time>
      </trkpt>
      <trkpt lat="43.10188" lon="-0.49912">
        <ele>720.16</ele>
        <time>2021-08-29T10:34:10Z</time>
      </trkpt>
      <trkpt lat="43.10189" lon="-0.49915">
        <ele>720.65</ele>
        <time>2021-08-29T10:34:12Z</time>
      </trkpt>
      <trkpt lat="43.10192" lon="-0.49928">
        <ele>721.61</ele>
        <time>2021-08-29T10:34:19Z</time>
      </trkpt>
      <trkpt lat="43.10199" lon="-0.49972">
        <ele>724.49</ele>
        <time>2021-08-29T10:34:38Z</time>
      </trkpt>
      <trkpt lat="43.10201" lon="-0.49976">
        <ele>724.49</ele>
        <time>2021-08-29T10:34:40Z</time>
      </trkpt>
      <trkpt lat="43.1021" lon="-0.49986">
        <ele>725.45</ele>
        <time>2021-08-29T10:34:47Z</time>
      </trkpt>
      <trkpt lat="43.1023" lon="-0.5002">
        <ele>728.34</ele>
        <time>2021-08-29T10:35:04Z</time>
      </trkpt>
      <trkpt lat="43.10247" lon="-0.50054">
        <ele>730.74</ele>
        <time>2021-08-29T10:35:18Z</time>
      </trkpt>
      <trkpt lat="43.1027" lon="-0.50107">
        <ele>730.74</ele>
        <time>2021-08-29T10:35:33Z</time>
      </trkpt>
      <trkpt lat="43.10281" lon="-0.5016">
        <ele>730.74</ele>
        <time>2021-08-29T10:35:46Z</time>
      </trkpt>
      <trkpt lat="43.10295" lon="-0.50196">
        <ele>729.78</ele>
        <time>2021-08-29T10:35:55Z</time>
      </trkpt>
      <trkpt lat="43.10311" lon="-0.50239">
        <ele>729.3</ele>
        <time>2021-08-29T10:36:05Z</time>
      </trkpt>
      <trkpt lat="43.1032" lon="-0.50257">
        <ele>729.3</ele>
        <time>2021-08-29T10:36:09Z</time>
      </trkpt>
      <trkpt lat="43.10346" lon="-0.50319">
        <ele>728.82</ele>
        <time>2021-08-29T10:36:21Z</time>
      </trkpt>
      <trkpt lat="43.10361" lon="-0.50382">
        <ele>728.82</ele>
        <time>2021-08-29T10:36:33Z</time>
      </trkpt>
      <trkpt lat="43.10378" lon="-0.50441">
        <ele>728.82</ele>
        <time>2021-08-29T10:36:44Z</time>
      </trkpt>
      <trkpt lat="43.10379" lon="-0.50446">
        <ele>728.82</ele>
        <time>2021-08-29T10:36:45Z</time>
      </trkpt>
      <trkpt lat="43.1039" lon="-0.50487">
        <ele>728.34</ele>
        <time>2021-08-29T10:36:52Z</time>
      </trkpt>
      <trkpt lat="43.10397" lon="-0.50516">
        <ele>728.34</ele>
        <time>2021-08-29T10:36:57Z</time>
      </trkpt>
      <trkpt lat="43.10404" lon="-0.50543">
        <ele>727.37</ele>
        <time>2021-08-29T10:37:01Z</time>
      </trkpt>
      <trkpt lat="43.1041" lon="-0.50563">
        <ele>727.37</ele>
        <time>2021-08-29T10:37:04Z</time>
      </trkpt>
      <trkpt lat="43.10417" lon="-0.50589">
        <ele>726.41</ele>
        <time>2021-08-29T10:37:08Z</time>
      </trkpt>
      <trkpt lat="43.10439" lon="-0.50653">
        <ele>726.41</ele>
        <time>2021-08-29T10:37:19Z</time>
      </trkpt>
      <trkpt lat="43.10443" lon="-0.50664">
        <ele>725.93</ele>
        <time>2021-08-29T10:37:21Z</time>
      </trkpt>
      <trkpt lat="43.10449" lon="-0.50691">
        <ele>724.97</ele>
        <time>2021-08-29T10:37:25Z</time>
      </trkpt>
      <trkpt lat="43.10456" lon="-0.50732">
        <ele>722.57</ele>
        <time>2021-08-29T10:37:30Z</time>
      </trkpt>
      <trkpt lat="43.10452" lon="-0.50794">
        <ele>718.24</ele>
        <time>2021-08-29T10:37:36Z</time>
      </trkpt>
      <trkpt lat="43.10451" lon="-0.50804">
        <ele>717.28</ele>
        <time>2021-08-29T10:37:37Z</time>
      </trkpt>
      <trkpt lat="43.10455" lon="-0.50845">
        <ele>715.84</ele>
        <time>2021-08-29T10:37:41Z</time>
      </trkpt>
      <trkpt lat="43.1046" lon="-0.50863">
        <ele>715.36</ele>
        <time>2021-08-29T10:37:43Z</time>
      </trkpt>
      <trkpt lat="43.10467" lon="-0.50882">
        <ele>714.88</ele>
        <time>2021-08-29T10:37:45Z</time>
      </trkpt>
      <trkpt lat="43.10474" lon="-0.50943">
        <ele>710.55</ele>
        <time>2021-08-29T10:37:51Z</time>
      </trkpt>
      <trkpt lat="43.10476" lon="-0.50972">
        <ele>708.15</ele>
        <time>2021-08-29T10:37:54Z</time>
      </trkpt>
      <trkpt lat="43.10484" lon="-0.51005">
        <ele>703.82</ele>
        <time>2021-08-29T10:37:58Z</time>
      </trkpt>
      <trkpt lat="43.10499" lon="-0.51033">
        <ele>700.94</ele>
        <time>2021-08-29T10:38:02Z</time>
      </trkpt>
      <trkpt lat="43.10513" lon="-0.5105">
        <ele>698.05</ele>
        <time>2021-08-29T10:38:06Z</time>
      </trkpt>
      <trkpt lat="43.10521" lon="-0.51053">
        <ele>696.61</ele>
        <time>2021-08-29T10:38:09Z</time>
      </trkpt>
      <trkpt lat="43.10533" lon="-0.51057">
        <ele>695.65</ele>
        <time>2021-08-29T10:38:18Z</time>
      </trkpt>
      <trkpt lat="43.10539" lon="-0.51057">
        <ele>694.69</ele>
        <time>2021-08-29T10:38:20Z</time>
      </trkpt>
      <trkpt lat="43.10552" lon="-0.51076">
        <ele>692.77</ele>
        <time>2021-08-29T10:38:24Z</time>
      </trkpt>
      <trkpt lat="43.10556" lon="-0.51089">
        <ele>692.29</ele>
        <time>2021-08-29T10:38:26Z</time>
      </trkpt>
      <trkpt lat="43.10561" lon="-0.51105">
        <ele>691.33</ele>
        <time>2021-08-29T10:38:29Z</time>
      </trkpt>
      <trkpt lat="43.10576" lon="-0.5114">
        <ele>689.4</ele>
        <time>2021-08-29T10:38:41Z</time>
      </trkpt>
      <trkpt lat="43.10577" lon="-0.5116">
        <ele>688.44</ele>
        <time>2021-08-29T10:38:45Z</time>
      </trkpt>
      <trkpt lat="43.10583" lon="-0.51181">
        <ele>687.96</ele>
        <time>2021-08-29T10:38:49Z</time>
      </trkpt>
      <trkpt lat="43.10592" lon="-0.51205">
        <ele>687</ele>
        <time>2021-08-29T10:38:53Z</time>
      </trkpt>
      <trkpt lat="43.106" lon="-0.51245">
        <ele>686.52</ele>
        <time>2021-08-29T10:39:06Z</time>
      </trkpt>
      <trkpt lat="43.106" lon="-0.51252">
        <ele>686.52</ele>
        <time>2021-08-29T10:39:20Z</time>
      </trkpt>
      <trkpt lat="43.106" lon="-0.51257">
        <ele>686.52</ele>
        <time>2021-08-29T10:39:29Z</time>
      </trkpt>
      <trkpt lat="43.10598" lon="-0.5126">
        <ele>686.52</ele>
        <time>2021-08-29T10:39:32Z</time>
      </trkpt>
      <trkpt lat="43.10599" lon="-0.5127">
        <ele>686.04</ele>
        <time>2021-08-29T10:39:43Z</time>
      </trkpt>
      <trkpt lat="43.10612" lon="-0.51272">
        <ele>685.56</ele>
        <time>2021-08-29T10:39:50Z</time>
      </trkpt>
      <trkpt lat="43.10621" lon="-0.51282">
        <ele>684.6</ele>
        <time>2021-08-29T10:39:54Z</time>
      </trkpt>
      <trkpt lat="43.10625" lon="-0.51285">
        <ele>683.15</ele>
        <time>2021-08-29T10:39:56Z</time>
      </trkpt>
      <trkpt lat="43.10633" lon="-0.51305">
        <ele>681.23</ele>
        <time>2021-08-29T10:40:01Z</time>
      </trkpt>
      <trkpt lat="43.10655" lon="-0.51331">
        <ele>676.91</ele>
        <time>2021-08-29T10:40:06Z</time>
      </trkpt>
      <trkpt lat="43.10665" lon="-0.51341">
        <ele>676.42</ele>
        <time>2021-08-29T10:40:08Z</time>
      </trkpt>
      <trkpt lat="43.107" lon="-0.51362">
        <ele>674.5</ele>
        <time>2021-08-29T10:40:17Z</time>
      </trkpt>
      <trkpt lat="43.10711" lon="-0.51379">
        <ele>673.06</ele>
        <time>2021-08-29T10:40:23Z</time>
      </trkpt>
      <trkpt lat="43.10715" lon="-0.51406">
        <ele>674.98</ele>
        <time>2021-08-29T10:40:32Z</time>
      </trkpt>
      <trkpt lat="43.10724" lon="-0.51431">
        <ele>677.87</ele>
        <time>2021-08-29T10:40:43Z</time>
      </trkpt>
      <trkpt lat="43.10736" lon="-0.51456">
        <ele>680.75</ele>
        <time>2021-08-29T10:40:54Z</time>
      </trkpt>
      <trkpt lat="43.10737" lon="-0.51461">
        <ele>681.71</ele>
        <time>2021-08-29T10:40:56Z</time>
      </trkpt>
      <trkpt lat="43.10742" lon="-0.51498">
        <ele>683.63</ele>
        <time>2021-08-29T10:41:09Z</time>
      </trkpt>
      <trkpt lat="43.10742" lon="-0.51517">
        <ele>684.12</ele>
        <time>2021-08-29T10:41:21Z</time>
      </trkpt>
      <trkpt lat="43.10742" lon="-0.51519">
        <ele>684.12</ele>
        <time>2021-08-29T10:41:30Z</time>
      </trkpt>
      <trkpt lat="43.10749" lon="-0.51553">
        <ele>681.71</ele>
        <time>2021-08-29T10:41:41Z</time>
      </trkpt>
      <trkpt lat="43.10751" lon="-0.51558">
        <ele>681.23</ele>
        <time>2021-08-29T10:41:42Z</time>
      </trkpt>
      <trkpt lat="43.1076" lon="-0.51577">
        <ele>679.31</ele>
        <time>2021-08-29T10:41:46Z</time>
      </trkpt>
      <trkpt lat="43.10767" lon="-0.51602">
        <ele>676.91</ele>
        <time>2021-08-29T10:41:51Z</time>
      </trkpt>
      <trkpt lat="43.10775" lon="-0.5163">
        <ele>673.06</ele>
        <time>2021-08-29T10:41:56Z</time>
      </trkpt>
      <trkpt lat="43.10776" lon="-0.51636">
        <ele>671.62</ele>
        <time>2021-08-29T10:41:57Z</time>
      </trkpt>
      <trkpt lat="43.10778" lon="-0.51649">
        <ele>670.66</ele>
        <time>2021-08-29T10:41:59Z</time>
      </trkpt>
      <trkpt lat="43.10782" lon="-0.51668">
        <ele>668.73</ele>
        <time>2021-08-29T10:42:02Z</time>
      </trkpt>
      <trkpt lat="43.10785" lon="-0.51695">
        <ele>664.89</ele>
        <time>2021-08-29T10:42:06Z</time>
      </trkpt>
      <trkpt lat="43.10787" lon="-0.51701">
        <ele>663.45</ele>
        <time>2021-08-29T10:42:07Z</time>
      </trkpt>
      <trkpt lat="43.10796" lon="-0.51722">
        <ele>661.04</ele>
        <time>2021-08-29T10:42:11Z</time>
      </trkpt>
      <trkpt lat="43.10797" lon="-0.51736">
        <ele>659.6</ele>
        <time>2021-08-29T10:42:14Z</time>
      </trkpt>
      <trkpt lat="43.108" lon="-0.51751">
        <ele>657.2</ele>
        <time>2021-08-29T10:42:17Z</time>
      </trkpt>
      <trkpt lat="43.10805" lon="-0.51772">
        <ele>654.31</ele>
        <time>2021-08-29T10:42:22Z</time>
      </trkpt>
      <trkpt lat="43.10806" lon="-0.51785">
        <ele>650.95</ele>
        <time>2021-08-29T10:42:25Z</time>
      </trkpt>
      <trkpt lat="43.1081" lon="-0.51801">
        <ele>647.1</ele>
        <time>2021-08-29T10:42:29Z</time>
      </trkpt>
      <trkpt lat="43.10816" lon="-0.51817">
        <ele>643.26</ele>
        <time>2021-08-29T10:42:34Z</time>
      </trkpt>
      <trkpt lat="43.10823" lon="-0.51829">
        <ele>640.38</ele>
        <time>2021-08-29T10:42:38Z</time>
      </trkpt>
      <trkpt lat="43.10827" lon="-0.51844">
        <ele>637.01</ele>
        <time>2021-08-29T10:42:42Z</time>
      </trkpt>
      <trkpt lat="43.10828" lon="-0.51847">
        <ele>636.53</ele>
        <time>2021-08-29T10:42:43Z</time>
      </trkpt>
      <trkpt lat="43.10835" lon="-0.5187">
        <ele>633.17</ele>
        <time>2021-08-29T10:42:54Z</time>
      </trkpt>
      <trkpt lat="43.10843" lon="-0.51885">
        <ele>630.28</ele>
        <time>2021-08-29T10:43:00Z</time>
      </trkpt>
      <trkpt lat="43.10848" lon="-0.51891">
        <ele>627.88</ele>
        <time>2021-08-29T10:43:02Z</time>
      </trkpt>
      <trkpt lat="43.10857" lon="-0.51913">
        <ele>623.55</ele>
        <time>2021-08-29T10:43:06Z</time>
      </trkpt>
      <trkpt lat="43.10861" lon="-0.51929">
        <ele>620.19</ele>
        <time>2021-08-29T10:43:09Z</time>
      </trkpt>
      <trkpt lat="43.10862" lon="-0.51943">
        <ele>617.78</ele>
        <time>2021-08-29T10:43:11Z</time>
      </trkpt>
      <trkpt lat="43.10862" lon="-0.51955">
        <ele>615.86</ele>
        <time>2021-08-29T10:43:13Z</time>
      </trkpt>
      <trkpt lat="43.10861" lon="-0.51966">
        <ele>614.42</ele>
        <time>2021-08-29T10:43:15Z</time>
      </trkpt>
      <trkpt lat="43.10865" lon="-0.51991">
        <ele>610.09</ele>
        <time>2021-08-29T10:43:19Z</time>
      </trkpt>
      <trkpt lat="43.10868" lon="-0.51997">
        <ele>608.65</ele>
        <time>2021-08-29T10:43:20Z</time>
      </trkpt>
      <trkpt lat="43.10877" lon="-0.52023">
        <ele>603.36</ele>
        <time>2021-08-29T10:43:26Z</time>
      </trkpt>
      <trkpt lat="43.10878" lon="-0.52044">
        <ele>600</ele>
        <time>2021-08-29T10:43:29Z</time>
      </trkpt>
      <trkpt lat="43.10883" lon="-0.52067">
        <ele>595.67</ele>
        <time>2021-08-29T10:43:33Z</time>
      </trkpt>
      <trkpt lat="43.10887" lon="-0.52082">
        <ele>592.79</ele>
        <time>2021-08-29T10:43:36Z</time>
      </trkpt>
      <trkpt lat="43.10891" lon="-0.52096">
        <ele>589.43</ele>
        <time>2021-08-29T10:43:39Z</time>
      </trkpt>
      <trkpt lat="43.10895" lon="-0.5211">
        <ele>586.54</ele>
        <time>2021-08-29T10:43:42Z</time>
      </trkpt>
      <trkpt lat="43.10897" lon="-0.52134">
        <ele>582.22</ele>
        <time>2021-08-29T10:43:46Z</time>
      </trkpt>
      <trkpt lat="43.10896" lon="-0.52151">
        <ele>578.85</ele>
        <time>2021-08-29T10:43:49Z</time>
      </trkpt>
      <trkpt lat="43.10901" lon="-0.52169">
        <ele>576.45</ele>
        <time>2021-08-29T10:43:54Z</time>
      </trkpt>
      <trkpt lat="43.10916" lon="-0.52168">
        <ele>575.01</ele>
        <time>2021-08-29T10:44:00Z</time>
      </trkpt>
      <trkpt lat="43.10931" lon="-0.52143">
        <ele>572.6</ele>
        <time>2021-08-29T10:44:05Z</time>
      </trkpt>
      <trkpt lat="43.10959" lon="-0.52085">
        <ele>567.32</ele>
        <time>2021-08-29T10:44:12Z</time>
      </trkpt>
      <trkpt lat="43.10978" lon="-0.52044">
        <ele>564.43</ele>
        <time>2021-08-29T10:44:16Z</time>
      </trkpt>
      <trkpt lat="43.10998" lon="-0.51999">
        <ele>561.07</ele>
        <time>2021-08-29T10:44:20Z</time>
      </trkpt>
      <trkpt lat="43.1102" lon="-0.51953">
        <ele>557.7</ele>
        <time>2021-08-29T10:44:24Z</time>
      </trkpt>
      <trkpt lat="43.11037" lon="-0.51922">
        <ele>555.3</ele>
        <time>2021-08-29T10:44:27Z</time>
      </trkpt>
      <trkpt lat="43.11058" lon="-0.51877">
        <ele>551.93</ele>
        <time>2021-08-29T10:44:31Z</time>
      </trkpt>
      <trkpt lat="43.11073" lon="-0.5184">
        <ele>548.57</ele>
        <time>2021-08-29T10:44:34Z</time>
      </trkpt>
      <trkpt lat="43.11087" lon="-0.51795">
        <ele>545.69</ele>
        <time>2021-08-29T10:44:38Z</time>
      </trkpt>
      <trkpt lat="43.11092" lon="-0.51773">
        <ele>544.72</ele>
        <time>2021-08-29T10:44:40Z</time>
      </trkpt>
      <trkpt lat="43.1108" lon="-0.51736">
        <ele>542.8</ele>
        <time>2021-08-29T10:44:46Z</time>
      </trkpt>
      <trkpt lat="43.1106" lon="-0.51703">
        <ele>540.4</ele>
        <time>2021-08-29T10:44:53Z</time>
      </trkpt>
      <trkpt lat="43.11077" lon="-0.51668">
        <ele>538.96</ele>
        <time>2021-08-29T10:44:58Z</time>
      </trkpt>
      <trkpt lat="43.11084" lon="-0.51635">
        <ele>537.99</ele>
        <time>2021-08-29T10:45:02Z</time>
      </trkpt>
      <trkpt lat="43.11091" lon="-0.51613">
        <ele>537.03</ele>
        <time>2021-08-29T10:45:10Z</time>
      </trkpt>
      <trkpt lat="43.11092" lon="-0.51613">
        <ele>537.03</ele>
        <time>2021-08-29T10:45:23Z</time>
      </trkpt>
      <trkpt lat="43.1109" lon="-0.51619">
        <ele>536.55</ele>
        <time>2021-08-29T10:45:32Z</time>
      </trkpt>
      <trkpt lat="43.1109" lon="-0.51618">
        <ele>536.55</ele>
        <time>2021-08-29T10:45:33Z</time>
      </trkpt>
      <trkpt lat="43.11075" lon="-0.516">
        <ele>539.92</ele>
        <time>2021-08-29T10:45:44Z</time>
      </trkpt>
      <trkpt lat="43.11059" lon="-0.51584">
        <ele>542.8</ele>
        <time>2021-08-29T10:45:56Z</time>
      </trkpt>
      <trkpt lat="43.11047" lon="-0.51571">
        <ele>546.17</ele>
        <time>2021-08-29T10:46:09Z</time>
      </trkpt>
      <trkpt lat="43.11046" lon="-0.5157">
        <ele>546.17</ele>
        <time>2021-08-29T10:46:10Z</time>
      </trkpt>
      <trkpt lat="43.1104" lon="-0.51544">
        <ele>549.05</ele>
        <time>2021-08-29T10:46:25Z</time>
      </trkpt>
      <trkpt lat="43.11039" lon="-0.5154">
        <ele>549.53</ele>
        <time>2021-08-29T10:46:28Z</time>
      </trkpt>
      <trkpt lat="43.11046" lon="-0.51514">
        <ele>551.93</ele>
        <time>2021-08-29T10:46:42Z</time>
      </trkpt>
      <trkpt lat="43.1105" lon="-0.51502">
        <ele>550.49</ele>
        <time>2021-08-29T10:46:49Z</time>
      </trkpt>
      <trkpt lat="43.11053" lon="-0.51494">
        <ele>550.49</ele>
        <time>2021-08-29T10:47:02Z</time>
      </trkpt>
      <trkpt lat="43.11053" lon="-0.51494">
        <ele>550.49</ele>
        <time>2021-08-29T10:47:04Z</time>
      </trkpt>
      <trkpt lat="43.11059" lon="-0.51464">
        <ele>550.49</ele>
        <time>2021-08-29T10:47:15Z</time>
      </trkpt>
      <trkpt lat="43.11069" lon="-0.51422">
        <ele>547.13</ele>
        <time>2021-08-29T10:47:21Z</time>
      </trkpt>
      <trkpt lat="43.11072" lon="-0.51407">
        <ele>546.65</ele>
        <time>2021-08-29T10:47:23Z</time>
      </trkpt>
      <trkpt lat="43.11075" lon="-0.51394">
        <ele>545.2</ele>
        <time>2021-08-29T10:47:25Z</time>
      </trkpt>
      <trkpt lat="43.11084" lon="-0.51368">
        <ele>543.28</ele>
        <time>2021-08-29T10:47:29Z</time>
      </trkpt>
      <trkpt lat="43.11096" lon="-0.5134">
        <ele>539.92</ele>
        <time>2021-08-29T10:47:33Z</time>
      </trkpt>
      <trkpt lat="43.11114" lon="-0.51308">
        <ele>535.59</ele>
        <time>2021-08-29T10:47:40Z</time>
      </trkpt>
      <trkpt lat="43.1113" lon="-0.5128">
        <ele>532.23</ele>
        <time>2021-08-29T10:47:44Z</time>
      </trkpt>
      <trkpt lat="43.11147" lon="-0.51247">
        <ele>529.82</ele>
        <time>2021-08-29T10:47:48Z</time>
      </trkpt>
      <trkpt lat="43.11158" lon="-0.51217">
        <ele>525.98</ele>
        <time>2021-08-29T10:47:52Z</time>
      </trkpt>
      <trkpt lat="43.11171" lon="-0.5118">
        <ele>522.13</ele>
        <time>2021-08-29T10:47:56Z</time>
      </trkpt>
      <trkpt lat="43.11175" lon="-0.51149">
        <ele>518.29</ele>
        <time>2021-08-29T10:48:01Z</time>
      </trkpt>
      <trkpt lat="43.11175" lon="-0.51132">
        <ele>514.44</ele>
        <time>2021-08-29T10:48:03Z</time>
      </trkpt>
      <trkpt lat="43.11176" lon="-0.51115">
        <ele>511.56</ele>
        <time>2021-08-29T10:48:05Z</time>
      </trkpt>
      <trkpt lat="43.11176" lon="-0.51087">
        <ele>507.23</ele>
        <time>2021-08-29T10:48:09Z</time>
      </trkpt>
      <trkpt lat="43.11177" lon="-0.51072">
        <ele>504.35</ele>
        <time>2021-08-29T10:48:11Z</time>
      </trkpt>
      <trkpt lat="43.11178" lon="-0.51059">
        <ele>501.95</ele>
        <time>2021-08-29T10:48:13Z</time>
      </trkpt>
      <trkpt lat="43.11186" lon="-0.51031">
        <ele>497.62</ele>
        <time>2021-08-29T10:48:17Z</time>
      </trkpt>
      <trkpt lat="43.11191" lon="-0.51019">
        <ele>494.74</ele>
        <time>2021-08-29T10:48:19Z</time>
      </trkpt>
      <trkpt lat="43.112" lon="-0.50991">
        <ele>489.93</ele>
        <time>2021-08-29T10:48:23Z</time>
      </trkpt>
      <trkpt lat="43.11205" lon="-0.50976">
        <ele>487.53</ele>
        <time>2021-08-29T10:48:25Z</time>
      </trkpt>
      <trkpt lat="43.11217" lon="-0.50951">
        <ele>482.72</ele>
        <time>2021-08-29T10:48:29Z</time>
      </trkpt>
      <trkpt lat="43.11222" lon="-0.50939">
        <ele>480.8</ele>
        <time>2021-08-29T10:48:31Z</time>
      </trkpt>
      <trkpt lat="43.11241" lon="-0.50928">
        <ele>476.47</ele>
        <time>2021-08-29T10:48:35Z</time>
      </trkpt>
      <trkpt lat="43.11257" lon="-0.50929">
        <ele>473.59</ele>
        <time>2021-08-29T10:48:38Z</time>
      </trkpt>
      <trkpt lat="43.11283" lon="-0.50926">
        <ele>469.26</ele>
        <time>2021-08-29T10:48:44Z</time>
      </trkpt>
      <trkpt lat="43.11294" lon="-0.5093">
        <ele>465.9</ele>
        <time>2021-08-29T10:48:47Z</time>
      </trkpt>
      <trkpt lat="43.11298" lon="-0.5094">
        <ele>464.93</ele>
        <time>2021-08-29T10:48:51Z</time>
      </trkpt>
      <trkpt lat="43.11307" lon="-0.50984">
        <ele>462.53</ele>
        <time>2021-08-29T10:49:03Z</time>
      </trkpt>
      <trkpt lat="43.113" lon="-0.51005">
        <ele>461.57</ele>
        <time>2021-08-29T10:49:07Z</time>
      </trkpt>
      <trkpt lat="43.11309" lon="-0.51025">
        <ele>458.21</ele>
        <time>2021-08-29T10:49:15Z</time>
      </trkpt>
      <trkpt lat="43.11322" lon="-0.51021">
        <ele>455.32</ele>
        <time>2021-08-29T10:49:18Z</time>
      </trkpt>
      <trkpt lat="43.11338" lon="-0.51014">
        <ele>451</ele>
        <time>2021-08-29T10:49:22Z</time>
      </trkpt>
      <trkpt lat="43.11345" lon="-0.51011">
        <ele>449.07</ele>
        <time>2021-08-29T10:49:24Z</time>
      </trkpt>
      <trkpt lat="43.11351" lon="-0.5101">
        <ele>447.15</ele>
        <time>2021-08-29T10:49:26Z</time>
      </trkpt>
      <trkpt lat="43.11368" lon="-0.51022">
        <ele>444.27</ele>
        <time>2021-08-29T10:49:32Z</time>
      </trkpt>
      <trkpt lat="43.11373" lon="-0.51024">
        <ele>444.27</ele>
        <time>2021-08-29T10:49:35Z</time>
      </trkpt>
      <trkpt lat="43.11397" lon="-0.5101">
        <ele>441.38</ele>
        <time>2021-08-29T10:49:46Z</time>
      </trkpt>
      <trkpt lat="43.11412" lon="-0.50996">
        <ele>438.98</ele>
        <time>2021-08-29T10:49:53Z</time>
      </trkpt>
      <trkpt lat="43.11423" lon="-0.50995">
        <ele>437.54</ele>
        <time>2021-08-29T10:49:55Z</time>
      </trkpt>
      <trkpt lat="43.11446" lon="-0.50983">
        <ele>432.73</ele>
        <time>2021-08-29T10:50:00Z</time>
      </trkpt>
      <trkpt lat="43.11455" lon="-0.50973">
        <ele>429.85</ele>
        <time>2021-08-29T10:50:03Z</time>
      </trkpt>
      <trkpt lat="43.11472" lon="-0.50956">
        <ele>424.56</ele>
        <time>2021-08-29T10:50:07Z</time>
      </trkpt>
      <trkpt lat="43.11489" lon="-0.50943">
        <ele>420.23</ele>
        <time>2021-08-29T10:50:11Z</time>
      </trkpt>
      <trkpt lat="43.11506" lon="-0.50932">
        <ele>416.39</ele>
        <time>2021-08-29T10:50:14Z</time>
      </trkpt>
      <trkpt lat="43.11525" lon="-0.50921">
        <ele>413.02</ele>
        <time>2021-08-29T10:50:17Z</time>
      </trkpt>
      <trkpt lat="43.11536" lon="-0.50921">
        <ele>411.58</ele>
        <time>2021-08-29T10:50:19Z</time>
      </trkpt>
      <trkpt lat="43.11582" lon="-0.50927">
        <ele>410.62</ele>
        <time>2021-08-29T10:50:27Z</time>
      </trkpt>
      <trkpt lat="43.11588" lon="-0.50939">
        <ele>411.1</ele>
        <time>2021-08-29T10:50:29Z</time>
      </trkpt>
      <trkpt lat="43.11602" lon="-0.5096">
        <ele>408.22</ele>
        <time>2021-08-29T10:50:35Z</time>
      </trkpt>
      <trkpt lat="43.11626" lon="-0.50944">
        <ele>404.85</ele>
        <time>2021-08-29T10:50:41Z</time>
      </trkpt>
      <trkpt lat="43.11643" lon="-0.50936">
        <ele>403.41</ele>
        <time>2021-08-29T10:50:44Z</time>
      </trkpt>
      <trkpt lat="43.11678" lon="-0.50918">
        <ele>399.57</ele>
        <time>2021-08-29T10:50:50Z</time>
      </trkpt>
      <trkpt lat="43.11698" lon="-0.50901">
        <ele>398.12</ele>
        <time>2021-08-29T10:50:53Z</time>
      </trkpt>
      <trkpt lat="43.11709" lon="-0.50895">
        <ele>397.16</ele>
        <time>2021-08-29T10:50:55Z</time>
      </trkpt>
      <trkpt lat="43.11749" lon="-0.50877">
        <ele>393.32</ele>
        <time>2021-08-29T10:51:00Z</time>
      </trkpt>
      <trkpt lat="43.11765" lon="-0.50869">
        <ele>392.36</ele>
        <time>2021-08-29T10:51:02Z</time>
      </trkpt>
      <trkpt lat="43.11805" lon="-0.50844">
        <ele>388.51</ele>
        <time>2021-08-29T10:51:07Z</time>
      </trkpt>
      <trkpt lat="43.11813" lon="-0.50839">
        <ele>387.55</ele>
        <time>2021-08-29T10:51:08Z</time>
      </trkpt>
      <trkpt lat="43.11828" lon="-0.50828">
        <ele>386.11</ele>
        <time>2021-08-29T10:51:10Z</time>
      </trkpt>
      <trkpt lat="43.11838" lon="-0.50822">
        <ele>384.18</ele>
        <time>2021-08-29T10:51:12Z</time>
      </trkpt>
      <trkpt lat="43.11858" lon="-0.50813">
        <ele>380.34</ele>
        <time>2021-08-29T10:51:16Z</time>
      </trkpt>
      <trkpt lat="43.11877" lon="-0.50803">
        <ele>376.01</ele>
        <time>2021-08-29T10:51:19Z</time>
      </trkpt>
      <trkpt lat="43.11893" lon="-0.50793">
        <ele>371.69</ele>
        <time>2021-08-29T10:51:22Z</time>
      </trkpt>
      <trkpt lat="43.11897" lon="-0.5079">
        <ele>370.73</ele>
        <time>2021-08-29T10:51:23Z</time>
      </trkpt>
      <trkpt lat="43.11912" lon="-0.50769">
        <ele>366.88</ele>
        <time>2021-08-29T10:51:27Z</time>
      </trkpt>
      <trkpt lat="43.11926" lon="-0.50753">
        <ele>364.96</ele>
        <time>2021-08-29T10:51:30Z</time>
      </trkpt>
      <trkpt lat="43.11936" lon="-0.50746">
        <ele>364.48</ele>
        <time>2021-08-29T10:51:32Z</time>
      </trkpt>
      <trkpt lat="43.11971" lon="-0.50709">
        <ele>366.4</ele>
        <time>2021-08-29T10:51:43Z</time>
      </trkpt>
      <trkpt lat="43.11993" lon="-0.50687">
        <ele>363.04</ele>
        <time>2021-08-29T10:51:50Z</time>
      </trkpt>
      <trkpt lat="43.1201" lon="-0.50661">
        <ele>359.19</ele>
        <time>2021-08-29T10:51:54Z</time>
      </trkpt>
      <trkpt lat="43.12015" lon="-0.50648">
        <ele>358.71</ele>
        <time>2021-08-29T10:51:56Z</time>
      </trkpt>
      <trkpt lat="43.12029" lon="-0.50629">
        <ele>358.71</ele>
        <time>2021-08-29T10:52:01Z</time>
      </trkpt>
      <trkpt lat="43.12035" lon="-0.50621">
        <ele>360.15</ele>
        <time>2021-08-29T10:52:04Z</time>
      </trkpt>
      <trkpt lat="43.12055" lon="-0.50597">
        <ele>360.63</ele>
        <time>2021-08-29T10:52:15Z</time>
      </trkpt>
      <trkpt lat="43.12062" lon="-0.50587">
        <ele>359.19</ele>
        <time>2021-08-29T10:52:17Z</time>
      </trkpt>
      <trkpt lat="43.12082" lon="-0.50568">
        <ele>356.31</ele>
        <time>2021-08-29T10:52:21Z</time>
      </trkpt>
      <trkpt lat="43.12107" lon="-0.50545">
        <ele>354.38</ele>
        <time>2021-08-29T10:52:25Z</time>
      </trkpt>
      <trkpt lat="43.12113" lon="-0.50539">
        <ele>354.38</ele>
        <time>2021-08-29T10:52:26Z</time>
      </trkpt>
      <trkpt lat="43.1214" lon="-0.50511">
        <ele>351.98</ele>
        <time>2021-08-29T10:52:31Z</time>
      </trkpt>
      <trkpt lat="43.12172" lon="-0.5047">
        <ele>347.65</ele>
        <time>2021-08-29T10:52:37Z</time>
      </trkpt>
      <trkpt lat="43.12183" lon="-0.50437">
        <ele>343.81</ele>
        <time>2021-08-29T10:52:41Z</time>
      </trkpt>
      <trkpt lat="43.12186" lon="-0.5042">
        <ele>342.37</ele>
        <time>2021-08-29T10:52:43Z</time>
      </trkpt>
      <trkpt lat="43.12189" lon="-0.50405">
        <ele>340.92</ele>
        <time>2021-08-29T10:52:44Z</time>
      </trkpt>
      <trkpt lat="43.12192" lon="-0.50387">
        <ele>339.48</ele>
        <time>2021-08-29T10:52:46Z</time>
      </trkpt>
      <trkpt lat="43.12198" lon="-0.50354">
        <ele>335.64</ele>
        <time>2021-08-29T10:52:51Z</time>
      </trkpt>
      <trkpt lat="43.12201" lon="-0.50332">
        <ele>331.79</ele>
        <time>2021-08-29T10:52:55Z</time>
      </trkpt>
      <trkpt lat="43.12202" lon="-0.50326">
        <ele>331.31</ele>
        <time>2021-08-29T10:52:57Z</time>
      </trkpt>
      <trkpt lat="43.12204" lon="-0.50316">
        <ele>330.83</ele>
        <time>2021-08-29T10:53:00Z</time>
      </trkpt>
      <trkpt lat="43.12206" lon="-0.50315">
        <ele>330.83</ele>
        <time>2021-08-29T10:53:01Z</time>
      </trkpt>
      <trkpt lat="43.12208" lon="-0.50313">
        <ele>330.35</ele>
        <time>2021-08-29T10:53:02Z</time>
      </trkpt>
      <trkpt lat="43.12211" lon="-0.50312">
        <ele>330.83</ele>
        <time>2021-08-29T10:53:03Z</time>
      </trkpt>
      <trkpt lat="43.12213" lon="-0.50311">
        <ele>330.83</ele>
        <time>2021-08-29T10:53:04Z</time>
      </trkpt>
      <trkpt lat="43.12215" lon="-0.5031">
        <ele>330.83</ele>
        <time>2021-08-29T10:53:05Z</time>
      </trkpt>
      <trkpt lat="43.12218" lon="-0.5031">
        <ele>330.83</ele>
        <time>2021-08-29T10:53:06Z</time>
      </trkpt>
      <trkpt lat="43.1222" lon="-0.5031">
        <ele>330.83</ele>
        <time>2021-08-29T10:53:07Z</time>
      </trkpt>
      <trkpt lat="43.12223" lon="-0.50309">
        <ele>330.83</ele>
        <time>2021-08-29T10:53:08Z</time>
      </trkpt>
      <trkpt lat="43.12225" lon="-0.50307">
        <ele>330.83</ele>
        <time>2021-08-29T10:53:09Z</time>
      </trkpt>
      <trkpt lat="43.12228" lon="-0.50306">
        <ele>330.83</ele>
        <time>2021-08-29T10:53:10Z</time>
      </trkpt>
      <trkpt lat="43.1223" lon="-0.50305">
        <ele>330.83</ele>
        <time>2021-08-29T10:53:11Z</time>
      </trkpt>
      <trkpt lat="43.12266" lon="-0.50306">
        <ele>334.2</ele>
        <time>2021-08-29T10:53:26Z</time>
      </trkpt>
      <trkpt lat="43.12268" lon="-0.50305">
        <ele>334.2</ele>
        <time>2021-08-29T10:53:27Z</time>
      </trkpt>
      <trkpt lat="43.1227" lon="-0.50304">
        <ele>334.2</ele>
        <time>2021-08-29T10:53:28Z</time>
      </trkpt>
      <trkpt lat="43.1227" lon="-0.50308">
        <ele>334.68</ele>
        <time>2021-08-29T10:53:41Z</time>
      </trkpt>
      <trkpt lat="43.12266" lon="-0.50307">
        <ele>334.2</ele>
        <time>2021-08-29T10:53:42Z</time>
      </trkpt>
      <trkpt lat="43.12263" lon="-0.50306">
        <ele>334.2</ele>
        <time>2021-08-29T10:53:43Z</time>
      </trkpt>
      <trkpt lat="43.1226" lon="-0.50306">
        <ele>334.2</ele>
        <time>2021-08-29T10:53:44Z</time>
      </trkpt>
      <trkpt lat="43.12256" lon="-0.50305">
        <ele>334.2</ele>
        <time>2021-08-29T10:53:45Z</time>
      </trkpt>
      <trkpt lat="43.12245" lon="-0.50305">
        <ele>333.23</ele>
        <time>2021-08-29T10:53:48Z</time>
      </trkpt>
      <trkpt lat="43.12204" lon="-0.5031">
        <ele>330.35</ele>
        <time>2021-08-29T10:53:55Z</time>
      </trkpt>
      <trkpt lat="43.12197" lon="-0.5031">
        <ele>329.87</ele>
        <time>2021-08-29T10:53:56Z</time>
      </trkpt>
      <trkpt lat="43.1219" lon="-0.50309">
        <ele>329.39</ele>
        <time>2021-08-29T10:53:57Z</time>
      </trkpt>
      <trkpt lat="43.12183" lon="-0.50306">
        <ele>328.91</ele>
        <time>2021-08-29T10:53:58Z</time>
      </trkpt>
      <trkpt lat="43.12176" lon="-0.50302">
        <ele>328.43</ele>
        <time>2021-08-29T10:53:59Z</time>
      </trkpt>
      <trkpt lat="43.1217" lon="-0.50296">
        <ele>327.95</ele>
        <time>2021-08-29T10:54:00Z</time>
      </trkpt>
      <trkpt lat="43.12165" lon="-0.50289">
        <ele>327.95</ele>
        <time>2021-08-29T10:54:01Z</time>
      </trkpt>
      <trkpt lat="43.1216" lon="-0.50282">
        <ele>327.95</ele>
        <time>2021-08-29T10:54:02Z</time>
      </trkpt>
      <trkpt lat="43.12156" lon="-0.50274">
        <ele>327.47</ele>
        <time>2021-08-29T10:54:03Z</time>
      </trkpt>
      <trkpt lat="43.12153" lon="-0.50265">
        <ele>327.47</ele>
        <time>2021-08-29T10:54:04Z</time>
      </trkpt>
      <trkpt lat="43.12151" lon="-0.50257">
        <ele>327.47</ele>
        <time>2021-08-29T10:54:05Z</time>
      </trkpt>
      <trkpt lat="43.12141" lon="-0.5019">
        <ele>328.91</ele>
        <time>2021-08-29T10:54:13Z</time>
      </trkpt>
      <trkpt lat="43.12142" lon="-0.50172">
        <ele>329.39</ele>
        <time>2021-08-29T10:54:15Z</time>
      </trkpt>
      <trkpt lat="43.12143" lon="-0.50166">
        <ele>329.39</ele>
        <time>2021-08-29T10:54:16Z</time>
      </trkpt>
      <trkpt lat="43.12145" lon="-0.50159">
        <ele>329.39</ele>
        <time>2021-08-29T10:54:17Z</time>
      </trkpt>
      <trkpt lat="43.12148" lon="-0.50152">
        <ele>329.39</ele>
        <time>2021-08-29T10:54:18Z</time>
      </trkpt>
      <trkpt lat="43.12153" lon="-0.50146">
        <ele>329.39</ele>
        <time>2021-08-29T10:54:19Z</time>
      </trkpt>
      <trkpt lat="43.12158" lon="-0.5014">
        <ele>329.39</ele>
        <time>2021-08-29T10:54:20Z</time>
      </trkpt>
      <trkpt lat="43.12163" lon="-0.50136">
        <ele>329.39</ele>
        <time>2021-08-29T10:54:21Z</time>
      </trkpt>
      <trkpt lat="43.12168" lon="-0.50132">
        <ele>329.39</ele>
        <time>2021-08-29T10:54:22Z</time>
      </trkpt>
      <trkpt lat="43.12174" lon="-0.5013">
        <ele>329.39</ele>
        <time>2021-08-29T10:54:23Z</time>
      </trkpt>
      <trkpt lat="43.12179" lon="-0.50128">
        <ele>330.35</ele>
        <time>2021-08-29T10:54:24Z</time>
      </trkpt>
      <trkpt lat="43.122" lon="-0.50119">
        <ele>331.31</ele>
        <time>2021-08-29T10:54:28Z</time>
      </trkpt>
      <trkpt lat="43.12204" lon="-0.50116">
        <ele>331.31</ele>
        <time>2021-08-29T10:54:29Z</time>
      </trkpt>
      <trkpt lat="43.12209" lon="-0.50112">
        <ele>331.79</ele>
        <time>2021-08-29T10:54:30Z</time>
      </trkpt>
      <trkpt lat="43.12215" lon="-0.50104">
        <ele>332.27</ele>
        <time>2021-08-29T10:54:32Z</time>
      </trkpt>
      <trkpt lat="43.12245" lon="-0.50057">
        <ele>333.23</ele>
        <time>2021-08-29T10:54:42Z</time>
      </trkpt>
      <trkpt lat="43.12248" lon="-0.5005">
        <ele>333.23</ele>
        <time>2021-08-29T10:54:43Z</time>
      </trkpt>
      <trkpt lat="43.12259" lon="-0.50007">
        <ele>331.79</ele>
        <time>2021-08-29T10:54:49Z</time>
      </trkpt>
      <trkpt lat="43.12272" lon="-0.4993">
        <ele>331.31</ele>
        <time>2021-08-29T10:54:58Z</time>
      </trkpt>
      <trkpt lat="43.12271" lon="-0.49919">
        <ele>330.83</ele>
        <time>2021-08-29T10:54:59Z</time>
      </trkpt>
      <trkpt lat="43.12269" lon="-0.4991">
        <ele>330.35</ele>
        <time>2021-08-29T10:55:00Z</time>
      </trkpt>
      <trkpt lat="43.12266" lon="-0.49901">
        <ele>330.35</ele>
        <time>2021-08-29T10:55:01Z</time>
      </trkpt>
      <trkpt lat="43.12261" lon="-0.49894">
        <ele>330.35</ele>
        <time>2021-08-29T10:55:02Z</time>
      </trkpt>
      <trkpt lat="43.12256" lon="-0.49888">
        <ele>330.35</ele>
        <time>2021-08-29T10:55:03Z</time>
      </trkpt>
      <trkpt lat="43.12249" lon="-0.49885">
        <ele>329.87</ele>
        <time>2021-08-29T10:55:04Z</time>
      </trkpt>
      <trkpt lat="43.12241" lon="-0.49883">
        <ele>329.39</ele>
        <time>2021-08-29T10:55:05Z</time>
      </trkpt>
      <trkpt lat="43.12234" lon="-0.49883">
        <ele>329.39</ele>
        <time>2021-08-29T10:55:06Z</time>
      </trkpt>
      <trkpt lat="43.12227" lon="-0.49884">
        <ele>329.39</ele>
        <time>2021-08-29T10:55:07Z</time>
      </trkpt>
      <trkpt lat="43.1222" lon="-0.49885">
        <ele>328.91</ele>
        <time>2021-08-29T10:55:08Z</time>
      </trkpt>
      <trkpt lat="43.12206" lon="-0.49885">
        <ele>328.43</ele>
        <time>2021-08-29T10:55:10Z</time>
      </trkpt>
      <trkpt lat="43.12199" lon="-0.49883">
        <ele>328.43</ele>
        <time>2021-08-29T10:55:11Z</time>
      </trkpt>
      <trkpt lat="43.12192" lon="-0.49879">
        <ele>328.43</ele>
        <time>2021-08-29T10:55:12Z</time>
      </trkpt>
      <trkpt lat="43.12187" lon="-0.49873">
        <ele>328.43</ele>
        <time>2021-08-29T10:55:13Z</time>
      </trkpt>
      <trkpt lat="43.12183" lon="-0.49865">
        <ele>327.95</ele>
        <time>2021-08-29T10:55:14Z</time>
      </trkpt>
      <trkpt lat="43.1218" lon="-0.49855">
        <ele>327.95</ele>
        <time>2021-08-29T10:55:15Z</time>
      </trkpt>
      <trkpt lat="43.1218" lon="-0.49846">
        <ele>327.47</ele>
        <time>2021-08-29T10:55:16Z</time>
      </trkpt>
      <trkpt lat="43.12182" lon="-0.49836">
        <ele>327.47</ele>
        <time>2021-08-29T10:55:17Z</time>
      </trkpt>
      <trkpt lat="43.12186" lon="-0.49828">
        <ele>327.47</ele>
        <time>2021-08-29T10:55:18Z</time>
      </trkpt>
      <trkpt lat="43.1219" lon="-0.49821">
        <ele>327.47</ele>
        <time>2021-08-29T10:55:19Z</time>
      </trkpt>
      <trkpt lat="43.12195" lon="-0.49814">
        <ele>327.47</ele>
        <time>2021-08-29T10:55:20Z</time>
      </trkpt>
      <trkpt lat="43.12208" lon="-0.49794">
        <ele>328.91</ele>
        <time>2021-08-29T10:55:23Z</time>
      </trkpt>
      <trkpt lat="43.12212" lon="-0.49787">
        <ele>328.91</ele>
        <time>2021-08-29T10:55:24Z</time>
      </trkpt>
      <trkpt lat="43.12215" lon="-0.4978">
        <ele>329.39</ele>
        <time>2021-08-29T10:55:25Z</time>
      </trkpt>
      <trkpt lat="43.12217" lon="-0.49771">
        <ele>329.39</ele>
        <time>2021-08-29T10:55:26Z</time>
      </trkpt>
      <trkpt lat="43.12219" lon="-0.49764">
        <ele>329.39</ele>
        <time>2021-08-29T10:55:27Z</time>
      </trkpt>
      <trkpt lat="43.1222" lon="-0.49757">
        <ele>329.87</ele>
        <time>2021-08-29T10:55:28Z</time>
      </trkpt>
      <trkpt lat="43.12221" lon="-0.49748">
        <ele>329.87</ele>
        <time>2021-08-29T10:55:29Z</time>
      </trkpt>
      <trkpt lat="43.12222" lon="-0.49742">
        <ele>329.87</ele>
        <time>2021-08-29T10:55:30Z</time>
      </trkpt>
      <trkpt lat="43.12222" lon="-0.49734">
        <ele>330.35</ele>
        <time>2021-08-29T10:55:31Z</time>
      </trkpt>
      <trkpt lat="43.12219" lon="-0.49713">
        <ele>330.83</ele>
        <time>2021-08-29T10:55:34Z</time>
      </trkpt>
      <trkpt lat="43.12213" lon="-0.49694">
        <ele>330.83</ele>
        <time>2021-08-29T10:55:37Z</time>
      </trkpt>
      <trkpt lat="43.1221" lon="-0.49689">
        <ele>330.83</ele>
        <time>2021-08-29T10:55:38Z</time>
      </trkpt>
      <trkpt lat="43.1217" lon="-0.4964">
        <ele>333.23</ele>
        <time>2021-08-29T10:55:52Z</time>
      </trkpt>
      <trkpt lat="43.12168" lon="-0.49639">
        <ele>333.23</ele>
        <time>2021-08-29T10:55:53Z</time>
      </trkpt>
      <trkpt lat="43.12166" lon="-0.49638">
        <ele>333.71</ele>
        <time>2021-08-29T10:55:58Z</time>
      </trkpt>
      <trkpt lat="43.12165" lon="-0.49637">
        <ele>333.71</ele>
        <time>2021-08-29T10:55:59Z</time>
      </trkpt>
      <trkpt lat="43.12164" lon="-0.49634">
        <ele>333.71</ele>
        <time>2021-08-29T10:56:00Z</time>
      </trkpt>
      <trkpt lat="43.12165" lon="-0.49632">
        <ele>333.71</ele>
        <time>2021-08-29T10:56:01Z</time>
      </trkpt>
      <trkpt lat="43.12166" lon="-0.49631">
        <ele>333.71</ele>
        <time>2021-08-29T10:56:02Z</time>
      </trkpt>
      <trkpt lat="43.12167" lon="-0.49631">
        <ele>333.71</ele>
        <time>2021-08-29T10:56:03Z</time>
      </trkpt>
      <trkpt lat="43.12168" lon="-0.49631">
        <ele>333.71</ele>
        <time>2021-08-29T10:56:04Z</time>
      </trkpt>
      <trkpt lat="43.12169" lon="-0.4963">
        <ele>333.23</ele>
        <time>2021-08-29T10:56:05Z</time>
      </trkpt>
      <trkpt lat="43.12171" lon="-0.49629">
        <ele>333.23</ele>
        <time>2021-08-29T10:56:06Z</time>
      </trkpt>
      <trkpt lat="43.12172" lon="-0.49628">
        <ele>333.23</ele>
        <time>2021-08-29T10:56:07Z</time>
      </trkpt>
      <trkpt lat="43.12174" lon="-0.49625">
        <ele>333.23</ele>
        <time>2021-08-29T10:56:08Z</time>
      </trkpt>
      <trkpt lat="43.12177" lon="-0.49622">
        <ele>331.79</ele>
        <time>2021-08-29T10:56:09Z</time>
      </trkpt>
      <trkpt lat="43.12188" lon="-0.49608">
        <ele>328.91</ele>
        <time>2021-08-29T10:56:12Z</time>
      </trkpt>
      <trkpt lat="43.12194" lon="-0.49599">
        <ele>328.43</ele>
        <time>2021-08-29T10:56:14Z</time>
      </trkpt>
      <trkpt lat="43.12197" lon="-0.4959">
        <ele>326.99</ele>
        <time>2021-08-29T10:56:16Z</time>
      </trkpt>
      <trkpt lat="43.12203" lon="-0.49583">
        <ele>323.62</ele>
        <time>2021-08-29T10:56:22Z</time>
      </trkpt>
      <trkpt lat="43.12211" lon="-0.49589">
        <ele>321.7</ele>
        <time>2021-08-29T10:56:24Z</time>
      </trkpt>
      <trkpt lat="43.12224" lon="-0.49596">
        <ele>317.85</ele>
        <time>2021-08-29T10:56:27Z</time>
      </trkpt>
      <trkpt lat="43.12252" lon="-0.49619">
        <ele>313.05</ele>
        <time>2021-08-29T10:56:32Z</time>
      </trkpt>
      <trkpt lat="43.12268" lon="-0.49639">
        <ele>310.16</ele>
        <time>2021-08-29T10:56:36Z</time>
      </trkpt>
      <trkpt lat="43.12277" lon="-0.49647">
        <ele>308.72</ele>
        <time>2021-08-29T10:56:39Z</time>
      </trkpt>
      <trkpt lat="43.1228" lon="-0.49644">
        <ele>308.72</ele>
        <time>2021-08-29T10:56:41Z</time>
      </trkpt>
      <trkpt lat="43.12282" lon="-0.49642">
        <ele>308.24</ele>
        <time>2021-08-29T10:56:42Z</time>
      </trkpt>
      <trkpt lat="43.12304" lon="-0.49609">
        <ele>307.76</ele>
        <time>2021-08-29T10:56:53Z</time>
      </trkpt>
      <trkpt lat="43.12306" lon="-0.49609">
        <ele>307.76</ele>
        <time>2021-08-29T10:56:54Z</time>
      </trkpt>
      <trkpt lat="43.12315" lon="-0.49614">
        <ele>309.2</ele>
        <time>2021-08-29T10:56:59Z</time>
      </trkpt>
      <trkpt lat="43.12331" lon="-0.49611">
        <ele>311.6</ele>
        <time>2021-08-29T10:57:07Z</time>
      </trkpt>
      <trkpt lat="43.12348" lon="-0.49619">
        <ele>315.93</ele>
        <time>2021-08-29T10:57:18Z</time>
      </trkpt>
      <trkpt lat="43.12356" lon="-0.49617">
        <ele>316.89</ele>
        <time>2021-08-29T10:57:23Z</time>
      </trkpt>
      <trkpt lat="43.12379" lon="-0.49641">
        <ele>317.37</ele>
        <time>2021-08-29T10:57:34Z</time>
      </trkpt>
      <trkpt lat="43.12406" lon="-0.49686">
        <ele>316.89</ele>
        <time>2021-08-29T10:57:45Z</time>
      </trkpt>
      <trkpt lat="43.12421" lon="-0.49714">
        <ele>315.93</ele>
        <time>2021-08-29T10:57:51Z</time>
      </trkpt>
      <trkpt lat="43.1244" lon="-0.49755">
        <ele>315.45</ele>
        <time>2021-08-29T10:57:58Z</time>
      </trkpt>
      <trkpt lat="43.12452" lon="-0.49771">
        <ele>315.45</ele>
        <time>2021-08-29T10:58:02Z</time>
      </trkpt>
      <trkpt lat="43.12482" lon="-0.498">
        <ele>312.57</ele>
        <time>2021-08-29T10:58:11Z</time>
      </trkpt>
      <trkpt lat="43.12487" lon="-0.4982">
        <ele>312.57</ele>
        <time>2021-08-29T10:58:16Z</time>
      </trkpt>
      <trkpt lat="43.12482" lon="-0.49831">
        <ele>312.57</ele>
        <time>2021-08-29T10:58:20Z</time>
      </trkpt>
      <trkpt lat="43.1248" lon="-0.4984">
        <ele>314.01</ele>
        <time>2021-08-29T10:58:23Z</time>
      </trkpt>
      <trkpt lat="43.12483" lon="-0.49858">
        <ele>315.93</ele>
        <time>2021-08-29T10:58:28Z</time>
      </trkpt>
      <trkpt lat="43.12488" lon="-0.49867">
        <ele>315.93</ele>
        <time>2021-08-29T10:58:31Z</time>
      </trkpt>
      <trkpt lat="43.12494" lon="-0.49878">
        <ele>315.93</ele>
        <time>2021-08-29T10:58:35Z</time>
      </trkpt>
      <trkpt lat="43.12493" lon="-0.49889">
        <ele>316.41</ele>
        <time>2021-08-29T10:58:40Z</time>
      </trkpt>
      <trkpt lat="43.12489" lon="-0.49905">
        <ele>315.45</ele>
        <time>2021-08-29T10:58:45Z</time>
      </trkpt>
      <trkpt lat="43.12478" lon="-0.49927">
        <ele>314.49</ele>
        <time>2021-08-29T10:58:54Z</time>
      </trkpt>
      <trkpt lat="43.12478" lon="-0.49931">
        <ele>314.49</ele>
        <time>2021-08-29T10:58:55Z</time>
      </trkpt>
      <trkpt lat="43.12473" lon="-0.49974">
        <ele>313.05</ele>
        <time>2021-08-29T10:59:05Z</time>
      </trkpt>
      <trkpt lat="43.12469" lon="-0.50012">
        <ele>313.05</ele>
        <time>2021-08-29T10:59:12Z</time>
      </trkpt>
      <trkpt lat="43.12468" lon="-0.5005">
        <ele>313.05</ele>
        <time>2021-08-29T10:59:18Z</time>
      </trkpt>
      <trkpt lat="43.12458" lon="-0.50075">
        <ele>313.05</ele>
        <time>2021-08-29T10:59:26Z</time>
      </trkpt>
      <trkpt lat="43.12452" lon="-0.50083">
        <ele>313.05</ele>
        <time>2021-08-29T10:59:30Z</time>
      </trkpt>
    </trkseg>
  </trk>
</gpx>